<?xml version="1.0" encoding="UTF-8" standalone="no" ?>
<gpx xmlns="http://www.topografix.com/GPX/1/1" xmlns:xsi="http://www.w3.org/2001/XMLSchema-instance" xsi:schemaLocation="http://www.topografix.com/GPX/1/1 http://www.topografix.com/GPX/1/1/gpx.xsd" version="1.1" creator="VisuGPX - https://www.visugpx.com">
  <metadata>
    <name>LePouliguen_LeCroisic_10-20km</name>
    <desc><![CDATA[gnerando idor:14387918_14388012_14411987_14458844_14458865]]></desc>
  </metadata>
  <trk>
    <name><![CDATA[LePouliguen_LeCroisic20.5km-14387918]]></name>
    <extensions>
      <line xmlns="http://www.topografix.com/GPX/gpx_style/0/2">
        <color>0000FF</color>
        <width>4</width>
      </line>
    </extensions>
    <trkseg>
      <trkpt lat="47.28264" lon="-2.4338">
        <ele>3</ele>
        <time>2023-11-04T19:25:10Z</time>
      </trkpt>
      <trkpt lat="47.28162" lon="-2.43243">
        <ele>4</ele>
        <time>2023-11-04T19:28:14Z</time>
      </trkpt>
      <trkpt lat="47.28092" lon="-2.43131">
        <ele>4</ele>
        <time>2023-11-04T19:30:32Z</time>
      </trkpt>
      <trkpt lat="47.28089" lon="-2.42903">
        <ele>6</ele>
        <time>2023-11-04T19:33:58Z</time>
      </trkpt>
      <trkpt lat="47.28039" lon="-2.428">
        <ele>5</ele>
        <time>2023-11-04T19:35:53Z</time>
      </trkpt>
      <trkpt lat="47.27833" lon="-2.42818">
        <ele>4</ele>
        <time>2023-11-04T19:40:29Z</time>
      </trkpt>
      <trkpt lat="47.27667" lon="-2.42783">
        <ele>4</ele>
        <time>2023-11-04T19:44:12Z</time>
      </trkpt>
      <trkpt lat="47.27381" lon="-2.4241">
        <ele>6</ele>
        <time>2023-11-04T19:52:42Z</time>
      </trkpt>
      <trkpt lat="47.27192" lon="-2.42517">
        <ele>7</ele>
        <time>2023-11-04T19:57:12Z</time>
      </trkpt>
      <trkpt lat="47.27029" lon="-2.42487">
        <ele>6</ele>
        <time>2023-11-04T20:00:51Z</time>
      </trkpt>
      <trkpt lat="47.26939" lon="-2.4232">
        <ele>1.5</ele>
        <time>2023-11-04T20:04:04Z</time>
      </trkpt>
      <trkpt lat="47.2688" lon="-2.42341">
        <ele>2</ele>
        <time>2023-11-04T20:05:25Z</time>
      </trkpt>
      <trkpt lat="47.26578" lon="-2.42152">
        <ele>6</ele>
        <time>2023-11-04T20:12:43Z</time>
      </trkpt>
      <trkpt lat="47.26519" lon="-2.41951">
        <ele>4</ele>
        <time>2023-11-04T20:16:02Z</time>
      </trkpt>
      <trkpt lat="47.26327" lon="-2.41908">
        <ele>5</ele>
        <time>2023-11-04T20:20:21Z</time>
      </trkpt>
      <trkpt lat="47.26155" lon="-2.4168">
        <ele>5</ele>
        <time>2023-11-04T20:25:29Z</time>
      </trkpt>
      <trkpt lat="47.2601" lon="-2.41998">
        <ele>12</ele>
        <time>2023-11-04T20:31:16Z</time>
      </trkpt>
      <trkpt lat="47.25876" lon="-2.42058">
        <ele>5</ele>
        <time>2023-11-04T20:34:23Z</time>
      </trkpt>
      <trkpt lat="47.25981" lon="-2.42461">
        <ele>6</ele>
        <time>2023-11-04T20:40:54Z</time>
      </trkpt>
      <trkpt lat="47.25975" lon="-2.42861">
        <ele>7</ele>
        <time>2023-11-04T20:46:57Z</time>
      </trkpt>
      <trkpt lat="47.2594" lon="-2.43015">
        <ele>8</ele>
        <time>2023-11-04T20:49:24Z</time>
      </trkpt>
      <trkpt lat="47.2582" lon="-2.43161">
        <ele>3</ele>
        <time>2023-11-04T20:52:51Z</time>
      </trkpt>
      <trkpt lat="47.25931" lon="-2.43238">
        <ele>5</ele>
        <time>2023-11-04T20:55:35Z</time>
      </trkpt>
      <trkpt lat="47.26071" lon="-2.4365">
        <ele>6</ele>
        <time>2023-11-04T21:02:32Z</time>
      </trkpt>
      <trkpt lat="47.26065" lon="-2.44024">
        <ele>7</ele>
        <time>2023-11-04T21:08:11Z</time>
      </trkpt>
      <trkpt lat="47.26193" lon="-2.44478">
        <ele>7</ele>
        <time>2023-11-04T21:15:36Z</time>
      </trkpt>
      <trkpt lat="47.26222" lon="-2.44779">
        <ele>5</ele>
        <time>2023-11-04T21:20:12Z</time>
      </trkpt>
      <trkpt lat="47.26356" lon="-2.44929">
        <ele>7</ele>
        <time>2023-11-04T21:23:56Z</time>
      </trkpt>
      <trkpt lat="47.26403" lon="-2.45024">
        <ele>8</ele>
        <time>2023-11-04T21:25:43Z</time>
      </trkpt>
      <trkpt lat="47.26295" lon="-2.45092">
        <ele>3</ele>
        <time>2023-11-04T21:28:20Z</time>
      </trkpt>
      <trkpt lat="47.26412" lon="-2.45281">
        <ele>3</ele>
        <time>2023-11-04T21:32:11Z</time>
      </trkpt>
      <trkpt lat="47.26566" lon="-2.45298">
        <ele>7</ele>
        <time>2023-11-04T21:35:37Z</time>
      </trkpt>
      <trkpt lat="47.26814" lon="-2.45521">
        <ele>7</ele>
        <time>2023-11-04T21:42:05Z</time>
      </trkpt>
      <trkpt lat="47.26799" lon="-2.45611">
        <ele>5</ele>
        <time>2023-11-04T21:43:29Z</time>
      </trkpt>
      <trkpt lat="47.26866" lon="-2.45702">
        <ele>5</ele>
        <time>2023-11-04T21:45:30Z</time>
      </trkpt>
      <trkpt lat="47.26907" lon="-2.45886">
        <ele>4</ele>
        <time>2023-11-04T21:48:26Z</time>
      </trkpt>
      <trkpt lat="47.26971" lon="-2.45985">
        <ele>5</ele>
        <time>2023-11-04T21:50:30Z</time>
      </trkpt>
      <trkpt lat="47.27032" lon="-2.46182">
        <ele>6</ele>
        <time>2023-11-04T21:53:46Z</time>
      </trkpt>
      <trkpt lat="47.26956" lon="-2.46294">
        <ele>2</ele>
        <time>2023-11-04T21:56:09Z</time>
      </trkpt>
      <trkpt lat="47.27012" lon="-2.46478">
        <ele>3</ele>
        <time>2023-11-04T21:59:12Z</time>
      </trkpt>
      <trkpt lat="47.27076" lon="-2.46508">
        <ele>5</ele>
        <time>2023-11-04T22:00:41Z</time>
      </trkpt>
      <trkpt lat="47.27099" lon="-2.46586">
        <ele>6</ele>
        <time>2023-11-04T22:01:58Z</time>
      </trkpt>
      <trkpt lat="47.26968" lon="-2.46766">
        <ele>5</ele>
        <time>2023-11-04T22:05:57Z</time>
      </trkpt>
      <trkpt lat="47.26988" lon="-2.47139">
        <ele>6</ele>
        <time>2023-11-04T22:11:36Z</time>
      </trkpt>
      <trkpt lat="47.27052" lon="-2.47148">
        <ele>11</ele>
        <time>2023-11-04T22:13:02Z</time>
      </trkpt>
      <trkpt lat="47.27125" lon="-2.47538">
        <ele>6</ele>
        <time>2023-11-04T22:19:08Z</time>
      </trkpt>
      <trkpt lat="47.27215" lon="-2.47779">
        <ele>6</ele>
        <time>2023-11-04T22:23:17Z</time>
      </trkpt>
      <trkpt lat="47.27288" lon="-2.47903">
        <ele>5</ele>
        <time>2023-11-04T22:25:46Z</time>
      </trkpt>
      <trkpt lat="47.27265" lon="-2.48062">
        <ele>5</ele>
        <time>2023-11-04T22:28:13Z</time>
      </trkpt>
      <trkpt lat="47.27408" lon="-2.48118">
        <ele>10</ele>
        <time>2023-11-04T22:31:31Z</time>
      </trkpt>
      <trkpt lat="47.2748" lon="-2.48684">
        <ele>4</ele>
        <time>2023-11-04T22:40:12Z</time>
      </trkpt>
      <trkpt lat="47.27556" lon="-2.48688">
        <ele>7</ele>
        <time>2023-11-04T22:41:54Z</time>
      </trkpt>
      <trkpt lat="47.27501" lon="-2.48804">
        <ele>5</ele>
        <time>2023-11-04T22:44:02Z</time>
      </trkpt>
      <trkpt lat="47.27571" lon="-2.49221">
        <ele>6</ele>
        <time>2023-11-04T22:50:31Z</time>
      </trkpt>
      <trkpt lat="47.27865" lon="-2.49264">
        <ele>7</ele>
        <time>2023-11-04T22:57:05Z</time>
      </trkpt>
      <trkpt lat="47.27806" lon="-2.49431">
        <ele>7</ele>
        <time>2023-11-04T22:59:55Z</time>
      </trkpt>
      <trkpt lat="47.27993" lon="-2.4968">
        <ele>7</ele>
        <time>2023-11-04T23:05:32Z</time>
      </trkpt>
      <trkpt lat="47.28109" lon="-2.49607">
        <ele>7</ele>
        <time>2023-11-04T23:08:20Z</time>
      </trkpt>
      <trkpt lat="47.28191" lon="-2.50139">
        <ele>7</ele>
        <time>2023-11-04T23:16:34Z</time>
      </trkpt>
      <trkpt lat="47.2829" lon="-2.50319">
        <ele>3</ele>
        <time>2023-11-04T23:20:04Z</time>
      </trkpt>
      <trkpt lat="47.28194" lon="-2.50744">
        <ele>3</ele>
        <time>2023-11-04T23:26:49Z</time>
      </trkpt>
      <trkpt lat="47.28234" lon="-2.51062">
        <ele>4</ele>
        <time>2023-11-04T23:31:42Z</time>
      </trkpt>
      <trkpt lat="47.28421" lon="-2.51293">
        <ele>7</ele>
        <time>2023-11-04T23:37:08Z</time>
      </trkpt>
      <trkpt lat="47.28511" lon="-2.51529">
        <ele>5</ele>
        <time>2023-11-04T23:41:13Z</time>
      </trkpt>
      <trkpt lat="47.28546" lon="-2.51817">
        <ele>3</ele>
        <time>2023-11-04T23:45:37Z</time>
      </trkpt>
      <trkpt lat="47.28636" lon="-2.521">
        <ele>6</ele>
        <time>2023-11-04T23:50:20Z</time>
      </trkpt>
      <trkpt lat="47.28622" lon="-2.52208">
        <ele>3</ele>
        <time>2023-11-04T23:52:00Z</time>
      </trkpt>
      <trkpt lat="47.28703" lon="-2.52306">
        <ele>6</ele>
        <time>2023-11-04T23:54:20Z</time>
      </trkpt>
      <trkpt lat="47.28689" lon="-2.52632">
        <ele>4</ele>
        <time>2023-11-04T23:59:15Z</time>
      </trkpt>
      <trkpt lat="47.28718" lon="-2.53074">
        <ele>7</ele>
        <time>2023-11-05T00:05:57Z</time>
      </trkpt>
      <trkpt lat="47.28817" lon="-2.53268">
        <ele>9</ele>
        <time>2023-11-05T00:09:37Z</time>
      </trkpt>
      <trkpt lat="47.28881" lon="-2.53624">
        <ele>7</ele>
        <time>2023-11-05T00:15:11Z</time>
      </trkpt>
      <trkpt lat="47.29055" lon="-2.54362">
        <ele>3</ele>
        <time>2023-11-05T00:26:58Z</time>
      </trkpt>
      <trkpt lat="47.29006" lon="-2.54482">
        <ele>3</ele>
        <time>2023-11-05T00:29:05Z</time>
      </trkpt>
      <trkpt lat="47.29044" lon="-2.54564">
        <ele>2</ele>
        <time>2023-11-05T00:30:34Z</time>
      </trkpt>
      <trkpt lat="47.29084" lon="-2.54555">
        <ele>3</ele>
        <time>2023-11-05T00:31:28Z</time>
      </trkpt>
      <trkpt lat="47.29245" lon="-2.54727">
        <ele>2</ele>
        <time>2023-11-05T00:35:54Z</time>
      </trkpt>
      <trkpt lat="47.29472" lon="-2.54705">
        <ele>2</ele>
        <time>2023-11-05T00:40:57Z</time>
      </trkpt>
      <trkpt lat="47.298" lon="-2.54473">
        <ele>3</ele>
        <time>2023-11-05T00:49:03Z</time>
      </trkpt>
      <trkpt lat="47.2987" lon="-2.54332">
        <ele>3</ele>
        <time>2023-11-05T00:51:41Z</time>
      </trkpt>
      <trkpt lat="47.29917" lon="-2.5407">
        <ele>2</ele>
        <time>2023-11-05T00:55:46Z</time>
      </trkpt>
      <trkpt lat="47.29969" lon="-2.53954">
        <ele>1</ele>
        <time>2023-11-05T00:57:52Z</time>
      </trkpt>
      <trkpt lat="47.2992" lon="-2.53649">
        <ele>2</ele>
        <time>2023-11-05T01:02:36Z</time>
      </trkpt>
      <trkpt lat="47.30089" lon="-2.53426">
        <ele>2</ele>
        <time>2023-11-05T01:07:38Z</time>
      </trkpt>
      <trkpt lat="47.30051" lon="-2.53268">
        <ele>3</ele>
        <time>2023-11-05T01:10:10Z</time>
      </trkpt>
      <trkpt lat="47.30048" lon="-2.53044">
        <ele>2</ele>
        <time>2023-11-05T01:13:33Z</time>
      </trkpt>
      <trkpt lat="47.30109" lon="-2.52718">
        <ele>4</ele>
        <time>2023-11-05T01:18:39Z</time>
      </trkpt>
      <trkpt lat="47.30042" lon="-2.52105">
        <ele>5</ele>
        <time>2023-11-05T01:28:01Z</time>
      </trkpt>
      <trkpt lat="47.30097" lon="-2.52057">
        <ele>3</ele>
        <time>2023-11-05T01:29:26Z</time>
      </trkpt>
      <trkpt lat="47.29969" lon="-2.51907">
        <ele>2</ele>
        <time>2023-11-05T01:33:04Z</time>
      </trkpt>
      <trkpt lat="47.29961" lon="-2.51834">
        <ele>3</ele>
        <time>2023-11-05T01:34:11Z</time>
      </trkpt>
      <trkpt lat="47.30004" lon="-2.518">
        <ele>1</ele>
        <time>2023-11-05T01:35:16Z</time>
      </trkpt>
      <trkpt lat="47.2992" lon="-2.51654">
        <ele>2</ele>
        <time>2023-11-05T01:38:10Z</time>
      </trkpt>
      <trkpt lat="47.29862" lon="-2.51478">
        <ele>2</ele>
        <time>2023-11-05T01:41:07Z</time>
      </trkpt>
      <trkpt lat="47.2955" lon="-2.51306">
        <ele>6</ele>
        <time>2023-11-05T01:48:31Z</time>
      </trkpt>
      <trkpt lat="47.29498" lon="-2.5113">
        <ele>6</ele>
        <time>2023-11-05T01:51:25Z</time>
      </trkpt>
      <trkpt lat="47.29378" lon="-2.50942">
        <ele>3</ele>
        <time>2023-11-05T01:55:19Z</time>
      </trkpt>
      <trkpt lat="47.29195" lon="-2.5083">
        <ele>5</ele>
        <time>2023-11-05T01:59:43Z</time>
      </trkpt>
      <trkpt lat="47.29201" lon="-2.50525">
        <ele>5</ele>
        <time>2023-11-05T02:04:19Z</time>
      </trkpt>
      <trkpt lat="47.29125" lon="-2.50474">
        <ele>4</ele>
        <time>2023-11-05T02:06:11Z</time>
      </trkpt>
      <trkpt lat="47.2905" lon="-2.5077">
        <ele>6</ele>
        <time>2023-11-05T02:10:57Z</time>
      </trkpt>
      <trkpt lat="47.28837" lon="-2.5062">
        <ele>4</ele>
        <time>2023-11-05T02:16:12Z</time>
      </trkpt>
    </trkseg>
  </trk>
  <trk>
    <name><![CDATA[LePouliguen_BoucleVersBatz_12.3km-14388012]]></name>
    <extensions>
      <line xmlns="http://www.topografix.com/GPX/gpx_style/0/2">
        <color>00FF00</color>
        <width>4</width>
      </line>
    </extensions>
    <trkseg>
      <trkpt lat="47.28264" lon="-2.4338">
        <ele>3</ele>
        <time>2023-11-04T19:24:51Z</time>
      </trkpt>
      <trkpt lat="47.28162" lon="-2.43243">
        <ele>4</ele>
        <time>2023-11-04T19:27:55Z</time>
      </trkpt>
      <trkpt lat="47.28092" lon="-2.43131">
        <ele>4</ele>
        <time>2023-11-04T19:30:13Z</time>
      </trkpt>
      <trkpt lat="47.28089" lon="-2.42903">
        <ele>6</ele>
        <time>2023-11-04T19:33:39Z</time>
      </trkpt>
      <trkpt lat="47.28039" lon="-2.428">
        <ele>5</ele>
        <time>2023-11-04T19:35:34Z</time>
      </trkpt>
      <trkpt lat="47.27833" lon="-2.42818">
        <ele>4</ele>
        <time>2023-11-04T19:40:10Z</time>
      </trkpt>
      <trkpt lat="47.27667" lon="-2.42783">
        <ele>4</ele>
        <time>2023-11-04T19:43:53Z</time>
      </trkpt>
      <trkpt lat="47.27381" lon="-2.4241">
        <ele>6</ele>
        <time>2023-11-04T19:52:23Z</time>
      </trkpt>
      <trkpt lat="47.27192" lon="-2.42517">
        <ele>7</ele>
        <time>2023-11-04T19:56:53Z</time>
      </trkpt>
      <trkpt lat="47.27029" lon="-2.42487">
        <ele>6</ele>
        <time>2023-11-04T20:00:32Z</time>
      </trkpt>
      <trkpt lat="47.26939" lon="-2.4232">
        <ele>1.5</ele>
        <time>2023-11-04T20:03:45Z</time>
      </trkpt>
      <trkpt lat="47.2688" lon="-2.42341">
        <ele>2</ele>
        <time>2023-11-04T20:05:06Z</time>
      </trkpt>
      <trkpt lat="47.26578" lon="-2.42152">
        <ele>6</ele>
        <time>2023-11-04T20:12:24Z</time>
      </trkpt>
      <trkpt lat="47.26519" lon="-2.41951">
        <ele>4</ele>
        <time>2023-11-04T20:15:43Z</time>
      </trkpt>
      <trkpt lat="47.26327" lon="-2.41908">
        <ele>5</ele>
        <time>2023-11-04T20:20:02Z</time>
      </trkpt>
      <trkpt lat="47.26155" lon="-2.4168">
        <ele>5</ele>
        <time>2023-11-04T20:25:10Z</time>
      </trkpt>
      <trkpt lat="47.2601" lon="-2.41998">
        <ele>12</ele>
        <time>2023-11-04T20:30:57Z</time>
      </trkpt>
      <trkpt lat="47.25876" lon="-2.42058">
        <ele>5</ele>
        <time>2023-11-04T20:34:04Z</time>
      </trkpt>
      <trkpt lat="47.25981" lon="-2.42461">
        <ele>6</ele>
        <time>2023-11-04T20:40:35Z</time>
      </trkpt>
      <trkpt lat="47.25975" lon="-2.42861">
        <ele>7</ele>
        <time>2023-11-04T20:46:38Z</time>
      </trkpt>
      <trkpt lat="47.2594" lon="-2.43015">
        <ele>8</ele>
        <time>2023-11-04T20:49:05Z</time>
      </trkpt>
      <trkpt lat="47.2582" lon="-2.43161">
        <ele>3</ele>
        <time>2023-11-04T20:52:32Z</time>
      </trkpt>
      <trkpt lat="47.25931" lon="-2.43238">
        <ele>5</ele>
        <time>2023-11-04T20:55:16Z</time>
      </trkpt>
      <trkpt lat="47.26071" lon="-2.4365">
        <ele>6</ele>
        <time>2023-11-04T21:02:13Z</time>
      </trkpt>
      <trkpt lat="47.26065" lon="-2.44024">
        <ele>7</ele>
        <time>2023-11-04T21:07:52Z</time>
      </trkpt>
      <trkpt lat="47.26193" lon="-2.44478">
        <ele>7</ele>
        <time>2023-11-04T21:15:17Z</time>
      </trkpt>
      <trkpt lat="47.26222" lon="-2.44779">
        <ele>5</ele>
        <time>2023-11-04T21:19:53Z</time>
      </trkpt>
      <trkpt lat="47.26356" lon="-2.44929">
        <ele>7</ele>
        <time>2023-11-04T21:23:37Z</time>
      </trkpt>
      <trkpt lat="47.26403" lon="-2.45024">
        <ele>8</ele>
        <time>2023-11-04T21:25:24Z</time>
      </trkpt>
      <trkpt lat="47.26295" lon="-2.45092">
        <ele>3</ele>
        <time>2023-11-04T21:28:01Z</time>
      </trkpt>
      <trkpt lat="47.26412" lon="-2.45281">
        <ele>3</ele>
        <time>2023-11-04T21:31:52Z</time>
      </trkpt>
      <trkpt lat="47.26566" lon="-2.45298">
        <ele>7</ele>
        <time>2023-11-04T21:35:18Z</time>
      </trkpt>
      <trkpt lat="47.26814" lon="-2.45521">
        <ele>7</ele>
        <time>2023-11-04T21:41:46Z</time>
      </trkpt>
      <trkpt lat="47.26799" lon="-2.45611">
        <ele>5</ele>
        <time>2023-11-04T21:43:10Z</time>
      </trkpt>
      <trkpt lat="47.26866" lon="-2.45702">
        <ele>5</ele>
        <time>2023-11-04T21:45:11Z</time>
      </trkpt>
      <trkpt lat="47.26907" lon="-2.45886">
        <ele>4</ele>
        <time>2023-11-04T21:48:07Z</time>
      </trkpt>
      <trkpt lat="47.26971" lon="-2.45985">
        <ele>5</ele>
        <time>2023-11-04T21:50:11Z</time>
      </trkpt>
      <trkpt lat="47.27032" lon="-2.46182">
        <ele>6</ele>
        <time>2023-11-04T21:53:27Z</time>
      </trkpt>
      <trkpt lat="47.26956" lon="-2.46294">
        <ele>2</ele>
        <time>2023-11-04T21:55:50Z</time>
      </trkpt>
      <trkpt lat="47.27012" lon="-2.46478">
        <ele>3</ele>
        <time>2023-11-04T21:58:53Z</time>
      </trkpt>
      <trkpt lat="47.27076" lon="-2.46508">
        <ele>5</ele>
        <time>2023-11-04T22:00:22Z</time>
      </trkpt>
      <trkpt lat="47.27099" lon="-2.46586">
        <ele>6</ele>
        <time>2023-11-04T22:01:39Z</time>
      </trkpt>
      <trkpt lat="47.26968" lon="-2.46766">
        <ele>5</ele>
        <time>2023-11-04T22:05:38Z</time>
      </trkpt>
      <trkpt lat="47.26988" lon="-2.47139">
        <ele>6</ele>
        <time>2023-11-04T22:11:17Z</time>
      </trkpt>
      <trkpt lat="47.27105" lon="-2.47089">
        <ele>14</ele>
        <time>2023-11-04T22:14:00Z</time>
      </trkpt>
      <trkpt lat="47.27131" lon="-2.46826">
        <ele>13</ele>
        <time>2023-11-04T22:18:00Z</time>
      </trkpt>
      <trkpt lat="47.27667" lon="-2.46281">
        <ele>7</ele>
        <time>2023-11-04T22:32:29Z</time>
      </trkpt>
      <trkpt lat="47.27627" lon="-2.45732">
        <ele>6</ele>
        <time>2023-11-04T22:40:49Z</time>
      </trkpt>
      <trkpt lat="47.27693" lon="-2.45697">
        <ele>7</ele>
        <time>2023-11-04T22:42:23Z</time>
      </trkpt>
      <trkpt lat="47.27513" lon="-2.44873">
        <ele>3</ele>
        <time>2023-11-04T22:55:27Z</time>
      </trkpt>
      <trkpt lat="47.27551" lon="-2.44809">
        <ele>3</ele>
        <time>2023-11-04T22:56:44Z</time>
      </trkpt>
      <trkpt lat="47.27411" lon="-2.44178">
        <ele>4</ele>
        <time>2023-11-04T23:06:45Z</time>
      </trkpt>
      <trkpt lat="47.27589" lon="-2.44067">
        <ele>3</ele>
        <time>2023-11-04T23:11:03Z</time>
      </trkpt>
      <trkpt lat="47.27734" lon="-2.44092">
        <ele>1</ele>
        <time>2023-11-04T23:14:17Z</time>
      </trkpt>
      <trkpt lat="47.27792" lon="-2.43865">
        <ele>1</ele>
        <time>2023-11-04T23:17:57Z</time>
      </trkpt>
      <trkpt lat="47.28188" lon="-2.43331">
        <ele>2</ele>
        <time>2023-11-04T23:29:53Z</time>
      </trkpt>
      <trkpt lat="47.28261" lon="-2.43406">
        <ele>2</ele>
        <time>2023-11-04T23:31:52Z</time>
      </trkpt>
    </trkseg>
  </trk>
  <trk>
    <name><![CDATA[LePouliguen_Batz_10km-14411987]]></name>
    <extensions>
      <line xmlns="http://www.topografix.com/GPX/gpx_style/0/2">
        <color>FF0000</color>
        <width>4</width>
      </line>
    </extensions>
    <trkseg>
      <trkpt lat="47.28264" lon="-2.4338">
        <ele>3</ele>
        <time>2023-11-04T19:24:38Z</time>
      </trkpt>
      <trkpt lat="47.28162" lon="-2.43243">
        <ele>4</ele>
        <time>2023-11-04T19:27:42Z</time>
      </trkpt>
      <trkpt lat="47.28092" lon="-2.43131">
        <ele>4</ele>
        <time>2023-11-04T19:30:00Z</time>
      </trkpt>
      <trkpt lat="47.28089" lon="-2.42903">
        <ele>6</ele>
        <time>2023-11-04T19:33:26Z</time>
      </trkpt>
      <trkpt lat="47.28039" lon="-2.428">
        <ele>5</ele>
        <time>2023-11-04T19:35:21Z</time>
      </trkpt>
      <trkpt lat="47.27833" lon="-2.42818">
        <ele>4</ele>
        <time>2023-11-04T19:39:57Z</time>
      </trkpt>
      <trkpt lat="47.27667" lon="-2.42783">
        <ele>4</ele>
        <time>2023-11-04T19:43:40Z</time>
      </trkpt>
      <trkpt lat="47.27381" lon="-2.4241">
        <ele>6</ele>
        <time>2023-11-04T19:52:10Z</time>
      </trkpt>
      <trkpt lat="47.27192" lon="-2.42517">
        <ele>7</ele>
        <time>2023-11-04T19:56:40Z</time>
      </trkpt>
      <trkpt lat="47.27029" lon="-2.42487">
        <ele>6</ele>
        <time>2023-11-04T20:00:19Z</time>
      </trkpt>
      <trkpt lat="47.26939" lon="-2.4232">
        <ele>1.5</ele>
        <time>2023-11-04T20:03:32Z</time>
      </trkpt>
      <trkpt lat="47.2688" lon="-2.42341">
        <ele>2</ele>
        <time>2023-11-04T20:04:53Z</time>
      </trkpt>
      <trkpt lat="47.26578" lon="-2.42152">
        <ele>6</ele>
        <time>2023-11-04T20:12:11Z</time>
      </trkpt>
      <trkpt lat="47.26519" lon="-2.41951">
        <ele>4</ele>
        <time>2023-11-04T20:15:30Z</time>
      </trkpt>
      <trkpt lat="47.26327" lon="-2.41908">
        <ele>5</ele>
        <time>2023-11-04T20:19:49Z</time>
      </trkpt>
      <trkpt lat="47.26155" lon="-2.4168">
        <ele>5</ele>
        <time>2023-11-04T20:24:57Z</time>
      </trkpt>
      <trkpt lat="47.2601" lon="-2.41998">
        <ele>12</ele>
        <time>2023-11-04T20:30:44Z</time>
      </trkpt>
      <trkpt lat="47.25876" lon="-2.42058">
        <ele>5</ele>
        <time>2023-11-04T20:33:51Z</time>
      </trkpt>
      <trkpt lat="47.25981" lon="-2.42461">
        <ele>6</ele>
        <time>2023-11-04T20:40:22Z</time>
      </trkpt>
      <trkpt lat="47.25975" lon="-2.42861">
        <ele>7</ele>
        <time>2023-11-04T20:46:25Z</time>
      </trkpt>
      <trkpt lat="47.2594" lon="-2.43015">
        <ele>8</ele>
        <time>2023-11-04T20:48:52Z</time>
      </trkpt>
      <trkpt lat="47.2582" lon="-2.43161">
        <ele>3</ele>
        <time>2023-11-04T20:52:19Z</time>
      </trkpt>
      <trkpt lat="47.25931" lon="-2.43238">
        <ele>5</ele>
        <time>2023-11-04T20:55:03Z</time>
      </trkpt>
      <trkpt lat="47.26071" lon="-2.4365">
        <ele>6</ele>
        <time>2023-11-04T21:02:00Z</time>
      </trkpt>
      <trkpt lat="47.26065" lon="-2.44024">
        <ele>7</ele>
        <time>2023-11-04T21:07:39Z</time>
      </trkpt>
      <trkpt lat="47.26193" lon="-2.44478">
        <ele>7</ele>
        <time>2023-11-04T21:15:04Z</time>
      </trkpt>
      <trkpt lat="47.26222" lon="-2.44779">
        <ele>5</ele>
        <time>2023-11-04T21:19:40Z</time>
      </trkpt>
      <trkpt lat="47.26356" lon="-2.44929">
        <ele>7</ele>
        <time>2023-11-04T21:23:24Z</time>
      </trkpt>
      <trkpt lat="47.26403" lon="-2.45024">
        <ele>8</ele>
        <time>2023-11-04T21:25:11Z</time>
      </trkpt>
      <trkpt lat="47.26295" lon="-2.45092">
        <ele>3</ele>
        <time>2023-11-04T21:27:48Z</time>
      </trkpt>
      <trkpt lat="47.26412" lon="-2.45281">
        <ele>3</ele>
        <time>2023-11-04T21:31:39Z</time>
      </trkpt>
      <trkpt lat="47.26566" lon="-2.45298">
        <ele>7</ele>
        <time>2023-11-04T21:35:05Z</time>
      </trkpt>
      <trkpt lat="47.26814" lon="-2.45521">
        <ele>7</ele>
        <time>2023-11-04T21:41:33Z</time>
      </trkpt>
      <trkpt lat="47.26799" lon="-2.45611">
        <ele>5</ele>
        <time>2023-11-04T21:42:57Z</time>
      </trkpt>
      <trkpt lat="47.26866" lon="-2.45702">
        <ele>5</ele>
        <time>2023-11-04T21:44:58Z</time>
      </trkpt>
      <trkpt lat="47.26907" lon="-2.45886">
        <ele>4</ele>
        <time>2023-11-04T21:47:54Z</time>
      </trkpt>
      <trkpt lat="47.26971" lon="-2.45985">
        <ele>5</ele>
        <time>2023-11-04T21:49:58Z</time>
      </trkpt>
      <trkpt lat="47.27032" lon="-2.46182">
        <ele>6</ele>
        <time>2023-11-04T21:53:14Z</time>
      </trkpt>
      <trkpt lat="47.26956" lon="-2.46294">
        <ele>2</ele>
        <time>2023-11-04T21:55:37Z</time>
      </trkpt>
      <trkpt lat="47.27012" lon="-2.46478">
        <ele>3</ele>
        <time>2023-11-04T21:58:40Z</time>
      </trkpt>
      <trkpt lat="47.27076" lon="-2.46508">
        <ele>5</ele>
        <time>2023-11-04T22:00:09Z</time>
      </trkpt>
      <trkpt lat="47.27099" lon="-2.46586">
        <ele>6</ele>
        <time>2023-11-04T22:01:26Z</time>
      </trkpt>
      <trkpt lat="47.26968" lon="-2.46766">
        <ele>5</ele>
        <time>2023-11-04T22:05:25Z</time>
      </trkpt>
      <trkpt lat="47.26988" lon="-2.47139">
        <ele>6</ele>
        <time>2023-11-04T22:11:04Z</time>
      </trkpt>
      <trkpt lat="47.27052" lon="-2.47148">
        <ele>11</ele>
        <time>2023-11-04T22:12:30Z</time>
      </trkpt>
      <trkpt lat="47.27125" lon="-2.47538">
        <ele>6</ele>
        <time>2023-11-04T22:18:36Z</time>
      </trkpt>
      <trkpt lat="47.27215" lon="-2.47779">
        <ele>6</ele>
        <time>2023-11-04T22:22:45Z</time>
      </trkpt>
      <trkpt lat="47.27288" lon="-2.47903">
        <ele>5</ele>
        <time>2023-11-04T22:25:14Z</time>
      </trkpt>
      <trkpt lat="47.27265" lon="-2.48062">
        <ele>5</ele>
        <time>2023-11-04T22:27:41Z</time>
      </trkpt>
      <trkpt lat="47.27408" lon="-2.48118">
        <ele>10</ele>
        <time>2023-11-04T22:30:59Z</time>
      </trkpt>
      <trkpt lat="47.28063" lon="-2.47926">
        <ele>6</ele>
        <time>2023-11-04T22:45:50Z</time>
      </trkpt>
      <trkpt lat="47.28066" lon="-2.47995">
        <ele>6</ele>
        <time>2023-11-04T22:46:52Z</time>
      </trkpt>
    </trkseg>
  </trk>
  <trk>
    <name><![CDATA[LePouliguen_LeCroisicGranitsMarais_19km-14458844]]></name>
    <extensions>
      <line xmlns="http://www.topografix.com/GPX/gpx_style/0/2">
        <color>008000</color>
        <width>4</width>
      </line>
    </extensions>
    <trkseg>
      <trkpt lat="47.28256" lon="-2.43381">
        <ele>2</ele>
        <time>2023-11-04T19:24:19Z</time>
      </trkpt>
      <trkpt lat="47.28194" lon="-2.43294">
        <ele>3</ele>
        <time>2023-11-04T19:26:13Z</time>
      </trkpt>
      <trkpt lat="47.27985" lon="-2.43651">
        <ele>2.7</ele>
        <time>2023-11-04T19:33:20Z</time>
      </trkpt>
      <trkpt lat="47.27799" lon="-2.43825">
        <ele>1</ele>
        <time>2023-11-04T19:38:14Z</time>
      </trkpt>
      <trkpt lat="47.27706" lon="-2.44075">
        <ele>2</ele>
        <time>2023-11-04T19:42:32Z</time>
      </trkpt>
      <trkpt lat="47.27541" lon="-2.44054">
        <ele>3</ele>
        <time>2023-11-04T19:46:13Z</time>
      </trkpt>
      <trkpt lat="47.27418" lon="-2.44157">
        <ele>4</ele>
        <time>2023-11-04T19:49:22Z</time>
      </trkpt>
      <trkpt lat="47.2745" lon="-2.4454">
        <ele>2</ele>
        <time>2023-11-04T19:55:11Z</time>
      </trkpt>
      <trkpt lat="47.27538" lon="-2.44807">
        <ele>3</ele>
        <time>2023-11-04T19:59:40Z</time>
      </trkpt>
      <trkpt lat="47.27503" lon="-2.44848">
        <ele>3</ele>
        <time>2023-11-04T20:00:40Z</time>
      </trkpt>
      <trkpt lat="47.27459" lon="-2.44849">
        <ele>3</ele>
        <time>2023-11-04T20:01:39Z</time>
      </trkpt>
      <trkpt lat="47.27415" lon="-2.4491">
        <ele>4</ele>
        <time>2023-11-04T20:02:59Z</time>
      </trkpt>
      <trkpt lat="47.27337" lon="-2.44965">
        <ele>4</ele>
        <time>2023-11-04T20:04:55Z</time>
      </trkpt>
      <trkpt lat="47.27062" lon="-2.45001">
        <ele>8</ele>
        <time>2023-11-04T20:11:03Z</time>
      </trkpt>
      <trkpt lat="47.27065" lon="-2.45341">
        <ele>8</ele>
        <time>2023-11-04T20:16:11Z</time>
      </trkpt>
      <trkpt lat="47.26973" lon="-2.45343">
        <ele>10</ele>
        <time>2023-11-04T20:18:14Z</time>
      </trkpt>
      <trkpt lat="47.26961" lon="-2.45433">
        <ele>9</ele>
        <time>2023-11-04T20:19:37Z</time>
      </trkpt>
      <trkpt lat="47.2683" lon="-2.4538">
        <ele>8</ele>
        <time>2023-11-04T20:22:38Z</time>
      </trkpt>
      <trkpt lat="47.26788" lon="-2.45408">
        <ele>7</ele>
        <time>2023-11-04T20:23:40Z</time>
      </trkpt>
      <trkpt lat="47.26767" lon="-2.45394">
        <ele>7</ele>
        <time>2023-11-04T20:24:10Z</time>
      </trkpt>
      <trkpt lat="47.26754" lon="-2.45422">
        <ele>7</ele>
        <time>2023-11-04T20:24:41Z</time>
      </trkpt>
      <trkpt lat="47.26815" lon="-2.45525">
        <ele>7</ele>
        <time>2023-11-04T20:26:45Z</time>
      </trkpt>
      <trkpt lat="47.26788" lon="-2.45559">
        <ele>7</ele>
        <time>2023-11-04T20:27:32Z</time>
      </trkpt>
      <trkpt lat="47.26793" lon="-2.45603">
        <ele>6</ele>
        <time>2023-11-04T20:28:13Z</time>
      </trkpt>
      <trkpt lat="47.26845" lon="-2.45635">
        <ele>6</ele>
        <time>2023-11-04T20:29:28Z</time>
      </trkpt>
      <trkpt lat="47.26869" lon="-2.4569">
        <ele>6</ele>
        <time>2023-11-04T20:30:27Z</time>
      </trkpt>
      <trkpt lat="47.26852" lon="-2.45717">
        <ele>4</ele>
        <time>2023-11-04T20:31:00Z</time>
      </trkpt>
      <trkpt lat="47.26896" lon="-2.45866">
        <ele>5</ele>
        <time>2023-11-04T20:33:27Z</time>
      </trkpt>
      <trkpt lat="47.26986" lon="-2.45984">
        <ele>6</ele>
        <time>2023-11-04T20:36:08Z</time>
      </trkpt>
      <trkpt lat="47.27024" lon="-2.46142">
        <ele>6</ele>
        <time>2023-11-04T20:38:40Z</time>
      </trkpt>
      <trkpt lat="47.27014" lon="-2.46197">
        <ele>5</ele>
        <time>2023-11-04T20:39:32Z</time>
      </trkpt>
      <trkpt lat="47.26986" lon="-2.46212">
        <ele>3</ele>
        <time>2023-11-04T20:40:11Z</time>
      </trkpt>
      <trkpt lat="47.26958" lon="-2.46298">
        <ele>3</ele>
        <time>2023-11-04T20:41:38Z</time>
      </trkpt>
      <trkpt lat="47.26999" lon="-2.46482">
        <ele>2</ele>
        <time>2023-11-04T20:44:33Z</time>
      </trkpt>
      <trkpt lat="47.27078" lon="-2.46506">
        <ele>5</ele>
        <time>2023-11-04T20:46:21Z</time>
      </trkpt>
      <trkpt lat="47.27109" lon="-2.46568">
        <ele>6</ele>
        <time>2023-11-04T20:47:30Z</time>
      </trkpt>
      <trkpt lat="47.27065" lon="-2.46603">
        <ele>5</ele>
        <time>2023-11-04T20:48:37Z</time>
      </trkpt>
      <trkpt lat="47.27059" lon="-2.46661">
        <ele>7</ele>
        <time>2023-11-04T20:49:30Z</time>
      </trkpt>
      <trkpt lat="47.26993" lon="-2.46705">
        <ele>5</ele>
        <time>2023-11-04T20:51:07Z</time>
      </trkpt>
      <trkpt lat="47.2697" lon="-2.46766">
        <ele>5</ele>
        <time>2023-11-04T20:52:10Z</time>
      </trkpt>
      <trkpt lat="47.26966" lon="-2.46855">
        <ele>5</ele>
        <time>2023-11-04T20:53:31Z</time>
      </trkpt>
      <trkpt lat="47.27009" lon="-2.46993">
        <ele>9</ele>
        <time>2023-11-04T20:55:48Z</time>
      </trkpt>
      <trkpt lat="47.2701" lon="-2.47046">
        <ele>9</ele>
        <time>2023-11-04T20:56:36Z</time>
      </trkpt>
      <trkpt lat="47.26979" lon="-2.47127">
        <ele>5</ele>
        <time>2023-11-04T20:58:01Z</time>
      </trkpt>
      <trkpt lat="47.27003" lon="-2.47168">
        <ele>6</ele>
        <time>2023-11-04T20:58:50Z</time>
      </trkpt>
      <trkpt lat="47.27044" lon="-2.47165">
        <ele>10</ele>
        <time>2023-11-04T20:59:44Z</time>
      </trkpt>
      <trkpt lat="47.27047" lon="-2.47283">
        <ele>8</ele>
        <time>2023-11-04T21:01:31Z</time>
      </trkpt>
      <trkpt lat="47.27108" lon="-2.47515">
        <ele>6</ele>
        <time>2023-11-04T21:05:17Z</time>
      </trkpt>
      <trkpt lat="47.27136" lon="-2.4757">
        <ele>6</ele>
        <time>2023-11-04T21:06:19Z</time>
      </trkpt>
      <trkpt lat="47.27175" lon="-2.47582">
        <ele>9</ele>
        <time>2023-11-04T21:07:12Z</time>
      </trkpt>
      <trkpt lat="47.27157" lon="-2.47625">
        <ele>6</ele>
        <time>2023-11-04T21:07:58Z</time>
      </trkpt>
      <trkpt lat="47.27182" lon="-2.47684">
        <ele>6</ele>
        <time>2023-11-04T21:09:01Z</time>
      </trkpt>
      <trkpt lat="47.27193" lon="-2.47775">
        <ele>5</ele>
        <time>2023-11-04T21:10:25Z</time>
      </trkpt>
      <trkpt lat="47.27219" lon="-2.47809">
        <ele>5</ele>
        <time>2023-11-04T21:11:11Z</time>
      </trkpt>
      <trkpt lat="47.27243" lon="-2.47801">
        <ele>6</ele>
        <time>2023-11-04T21:11:44Z</time>
      </trkpt>
      <trkpt lat="47.2729" lon="-2.47862">
        <ele>6</ele>
        <time>2023-11-04T21:13:07Z</time>
      </trkpt>
      <trkpt lat="47.27259" lon="-2.47999">
        <ele>4</ele>
        <time>2023-11-04T21:15:18Z</time>
      </trkpt>
      <trkpt lat="47.27276" lon="-2.48097">
        <ele>5</ele>
        <time>2023-11-04T21:16:50Z</time>
      </trkpt>
      <trkpt lat="47.27369" lon="-2.48101">
        <ele>8</ele>
        <time>2023-11-04T21:18:54Z</time>
      </trkpt>
      <trkpt lat="47.27405" lon="-2.48132">
        <ele>9</ele>
        <time>2023-11-04T21:19:49Z</time>
      </trkpt>
      <trkpt lat="47.2765" lon="-2.48091">
        <ele>18</ele>
        <time>2023-11-04T21:25:19Z</time>
      </trkpt>
      <trkpt lat="47.28064" lon="-2.4793">
        <ele>6</ele>
        <time>2023-11-04T21:34:50Z</time>
      </trkpt>
      <trkpt lat="47.28138" lon="-2.48364">
        <ele>7</ele>
        <time>2023-11-04T21:41:35Z</time>
      </trkpt>
      <trkpt lat="47.28233" lon="-2.48348">
        <ele>5</ele>
        <time>2023-11-04T21:43:43Z</time>
      </trkpt>
      <trkpt lat="47.28262" lon="-2.48375">
        <ele>4</ele>
        <time>2023-11-04T21:44:28Z</time>
      </trkpt>
      <trkpt lat="47.28285" lon="-2.48361">
        <ele>3</ele>
        <time>2023-11-04T21:45:02Z</time>
      </trkpt>
      <trkpt lat="47.28278" lon="-2.48276">
        <ele>3</ele>
        <time>2023-11-04T21:46:19Z</time>
      </trkpt>
      <trkpt lat="47.28383" lon="-2.48216">
        <ele>1</ele>
        <time>2023-11-04T21:48:49Z</time>
      </trkpt>
      <trkpt lat="47.28427" lon="-2.48226">
        <ele>2.9</ele>
        <time>2023-11-04T21:49:49Z</time>
      </trkpt>
      <trkpt lat="47.28451" lon="-2.48185">
        <ele>2.8</ele>
        <time>2023-11-04T21:50:38Z</time>
      </trkpt>
      <trkpt lat="47.28511" lon="-2.48181">
        <ele>1.7</ele>
        <time>2023-11-04T21:51:58Z</time>
      </trkpt>
      <trkpt lat="47.28542" lon="-2.48229">
        <ele>1.5</ele>
        <time>2023-11-04T21:52:58Z</time>
      </trkpt>
      <trkpt lat="47.28564" lon="-2.48305">
        <ele>2</ele>
        <time>2023-11-04T21:54:13Z</time>
      </trkpt>
      <trkpt lat="47.28489" lon="-2.48311">
        <ele>2</ele>
        <time>2023-11-04T21:55:53Z</time>
      </trkpt>
      <trkpt lat="47.28478" lon="-2.48375">
        <ele>2</ele>
        <time>2023-11-04T21:56:53Z</time>
      </trkpt>
      <trkpt lat="47.28445" lon="-2.48398">
        <ele>1</ele>
        <time>2023-11-04T21:57:41Z</time>
      </trkpt>
      <trkpt lat="47.28434" lon="-2.48532">
        <ele>2</ele>
        <time>2023-11-04T21:59:44Z</time>
      </trkpt>
      <trkpt lat="47.28468" lon="-2.48564">
        <ele>1</ele>
        <time>2023-11-04T22:00:37Z</time>
      </trkpt>
      <trkpt lat="47.28477" lon="-2.48607">
        <ele>1.9</ele>
        <time>2023-11-04T22:01:18Z</time>
      </trkpt>
      <trkpt lat="47.28525" lon="-2.48574">
        <ele>1.4</ele>
        <time>2023-11-04T22:02:29Z</time>
      </trkpt>
      <trkpt lat="47.28566" lon="-2.48515">
        <ele>1.8</ele>
        <time>2023-11-04T22:03:45Z</time>
      </trkpt>
      <trkpt lat="47.28597" lon="-2.48495">
        <ele>2.1</ele>
        <time>2023-11-04T22:04:31Z</time>
      </trkpt>
      <trkpt lat="47.28626" lon="-2.48502">
        <ele>2.5</ele>
        <time>2023-11-04T22:05:10Z</time>
      </trkpt>
      <trkpt lat="47.28666" lon="-2.48659">
        <ele>2.2</ele>
        <time>2023-11-04T22:07:42Z</time>
      </trkpt>
      <trkpt lat="47.28548" lon="-2.48794">
        <ele>2.4</ele>
        <time>2023-11-04T22:11:01Z</time>
      </trkpt>
      <trkpt lat="47.28572" lon="-2.48817">
        <ele>2.4</ele>
        <time>2023-11-04T22:11:39Z</time>
      </trkpt>
      <trkpt lat="47.28582" lon="-2.48854">
        <ele>2</ele>
        <time>2023-11-04T22:12:15Z</time>
      </trkpt>
      <trkpt lat="47.28569" lon="-2.48911">
        <ele>2.4</ele>
        <time>2023-11-04T22:13:10Z</time>
      </trkpt>
      <trkpt lat="47.28526" lon="-2.48927">
        <ele>2</ele>
        <time>2023-11-04T22:14:09Z</time>
      </trkpt>
      <trkpt lat="47.28474" lon="-2.48917">
        <ele>2</ele>
        <time>2023-11-04T22:15:19Z</time>
      </trkpt>
      <trkpt lat="47.28458" lon="-2.48961">
        <ele>2.6</ele>
        <time>2023-11-04T22:16:04Z</time>
      </trkpt>
      <trkpt lat="47.2849" lon="-2.48985">
        <ele>2.4</ele>
        <time>2023-11-04T22:16:52Z</time>
      </trkpt>
      <trkpt lat="47.28577" lon="-2.48973">
        <ele>2</ele>
        <time>2023-11-04T22:18:48Z</time>
      </trkpt>
      <trkpt lat="47.28598" lon="-2.49021">
        <ele>2</ele>
        <time>2023-11-04T22:19:40Z</time>
      </trkpt>
      <trkpt lat="47.28595" lon="-2.49081">
        <ele>1</ele>
        <time>2023-11-04T22:20:35Z</time>
      </trkpt>
      <trkpt lat="47.28611" lon="-2.49161">
        <ele>2</ele>
        <time>2023-11-04T22:21:50Z</time>
      </trkpt>
      <trkpt lat="47.28635" lon="-2.4932">
        <ele>1.9</ele>
        <time>2023-11-04T22:24:18Z</time>
      </trkpt>
      <trkpt lat="47.28633" lon="-2.49628">
        <ele>1.4</ele>
        <time>2023-11-04T22:28:56Z</time>
      </trkpt>
      <trkpt lat="47.28526" lon="-2.4968">
        <ele>1.1</ele>
        <time>2023-11-04T22:31:27Z</time>
      </trkpt>
      <trkpt lat="47.28519" lon="-2.49724">
        <ele>2</ele>
        <time>2023-11-04T22:32:08Z</time>
      </trkpt>
      <trkpt lat="47.28414" lon="-2.49733">
        <ele>2.6</ele>
        <time>2023-11-04T22:34:28Z</time>
      </trkpt>
      <trkpt lat="47.28346" lon="-2.49777">
        <ele>1</ele>
        <time>2023-11-04T22:36:07Z</time>
      </trkpt>
      <trkpt lat="47.28343" lon="-2.49826">
        <ele>2</ele>
        <time>2023-11-04T22:36:52Z</time>
      </trkpt>
      <trkpt lat="47.28387" lon="-2.49844">
        <ele>1</ele>
        <time>2023-11-04T22:37:53Z</time>
      </trkpt>
      <trkpt lat="47.28416" lon="-2.49917">
        <ele>1</ele>
        <time>2023-11-04T22:39:09Z</time>
      </trkpt>
      <trkpt lat="47.28475" lon="-2.49894">
        <ele>2</ele>
        <time>2023-11-04T22:40:31Z</time>
      </trkpt>
      <trkpt lat="47.28523" lon="-2.49891">
        <ele>2.1</ele>
        <time>2023-11-04T22:41:35Z</time>
      </trkpt>
      <trkpt lat="47.28558" lon="-2.50155">
        <ele>1.9</ele>
        <time>2023-11-04T22:45:38Z</time>
      </trkpt>
      <trkpt lat="47.28535" lon="-2.50172">
        <ele>1.8</ele>
        <time>2023-11-04T22:46:13Z</time>
      </trkpt>
      <trkpt lat="47.28504" lon="-2.50158">
        <ele>2.6</ele>
        <time>2023-11-04T22:46:56Z</time>
      </trkpt>
      <trkpt lat="47.28493" lon="-2.50231">
        <ele>2</ele>
        <time>2023-11-04T22:48:03Z</time>
      </trkpt>
      <trkpt lat="47.28396" lon="-2.50279">
        <ele>2</ele>
        <time>2023-11-04T22:50:20Z</time>
      </trkpt>
      <trkpt lat="47.28385" lon="-2.50335">
        <ele>3</ele>
        <time>2023-11-04T22:51:13Z</time>
      </trkpt>
      <trkpt lat="47.28341" lon="-2.50319">
        <ele>4</ele>
        <time>2023-11-04T22:52:13Z</time>
      </trkpt>
      <trkpt lat="47.28326" lon="-2.50361">
        <ele>4</ele>
        <time>2023-11-04T22:52:56Z</time>
      </trkpt>
      <trkpt lat="47.28289" lon="-2.50373">
        <ele>4</ele>
        <time>2023-11-04T22:53:47Z</time>
      </trkpt>
      <trkpt lat="47.2821" lon="-2.5072">
        <ele>5</ele>
        <time>2023-11-04T22:59:18Z</time>
      </trkpt>
      <trkpt lat="47.28186" lon="-2.50721">
        <ele>4</ele>
        <time>2023-11-04T22:59:50Z</time>
      </trkpt>
      <trkpt lat="47.28239" lon="-2.50974">
        <ele>4</ele>
        <time>2023-11-04T23:03:50Z</time>
      </trkpt>
      <trkpt lat="47.28232" lon="-2.51044">
        <ele>4</ele>
        <time>2023-11-04T23:04:54Z</time>
      </trkpt>
      <trkpt lat="47.28264" lon="-2.5109">
        <ele>5</ele>
        <time>2023-11-04T23:05:54Z</time>
      </trkpt>
      <trkpt lat="47.28296" lon="-2.51186">
        <ele>3</ele>
        <time>2023-11-04T23:07:30Z</time>
      </trkpt>
      <trkpt lat="47.28408" lon="-2.51271">
        <ele>6</ele>
        <time>2023-11-04T23:10:19Z</time>
      </trkpt>
      <trkpt lat="47.2844" lon="-2.51397">
        <ele>6</ele>
        <time>2023-11-04T23:12:20Z</time>
      </trkpt>
      <trkpt lat="47.2852" lon="-2.51515">
        <ele>6</ele>
        <time>2023-11-04T23:14:51Z</time>
      </trkpt>
      <trkpt lat="47.2855" lon="-2.51777">
        <ele>6</ele>
        <time>2023-11-04T23:18:52Z</time>
      </trkpt>
      <trkpt lat="47.28615" lon="-2.5186">
        <ele>8</ele>
        <time>2023-11-04T23:20:47Z</time>
      </trkpt>
      <trkpt lat="47.28622" lon="-2.51911">
        <ele>6</ele>
        <time>2023-11-04T23:21:34Z</time>
      </trkpt>
      <trkpt lat="47.2861" lon="-2.51961">
        <ele>5</ele>
        <time>2023-11-04T23:22:22Z</time>
      </trkpt>
      <trkpt lat="47.28641" lon="-2.52043">
        <ele>8</ele>
        <time>2023-11-04T23:23:47Z</time>
      </trkpt>
      <trkpt lat="47.28632" lon="-2.52064">
        <ele>6</ele>
        <time>2023-11-04T23:24:09Z</time>
      </trkpt>
      <trkpt lat="47.28654" lon="-2.52088">
        <ele>9</ele>
        <time>2023-11-04T23:24:46Z</time>
      </trkpt>
      <trkpt lat="47.28641" lon="-2.52126">
        <ele>7</ele>
        <time>2023-11-04T23:25:24Z</time>
      </trkpt>
      <trkpt lat="47.28654" lon="-2.52152">
        <ele>7</ele>
        <time>2023-11-04T23:25:53Z</time>
      </trkpt>
      <trkpt lat="47.28627" lon="-2.52188">
        <ele>4</ele>
        <time>2023-11-04T23:26:42Z</time>
      </trkpt>
      <trkpt lat="47.28678" lon="-2.52235">
        <ele>6</ele>
        <time>2023-11-04T23:28:02Z</time>
      </trkpt>
      <trkpt lat="47.28701" lon="-2.52217">
        <ele>8</ele>
        <time>2023-11-04T23:28:37Z</time>
      </trkpt>
      <trkpt lat="47.28742" lon="-2.52416">
        <ele>10</ele>
        <time>2023-11-04T23:31:45Z</time>
      </trkpt>
      <trkpt lat="47.28694" lon="-2.52577">
        <ele>5</ele>
        <time>2023-11-04T23:34:25Z</time>
      </trkpt>
      <trkpt lat="47.28718" lon="-2.52674">
        <ele>7</ele>
        <time>2023-11-04T23:35:58Z</time>
      </trkpt>
      <trkpt lat="47.28717" lon="-2.52802">
        <ele>8</ele>
        <time>2023-11-04T23:37:54Z</time>
      </trkpt>
      <trkpt lat="47.28745" lon="-2.52983">
        <ele>11</ele>
        <time>2023-11-04T23:40:42Z</time>
      </trkpt>
      <trkpt lat="47.28751" lon="-2.53151">
        <ele>7</ele>
        <time>2023-11-04T23:43:14Z</time>
      </trkpt>
      <trkpt lat="47.2883" lon="-2.53245">
        <ele>12</ele>
        <time>2023-11-04T23:45:30Z</time>
      </trkpt>
      <trkpt lat="47.2886" lon="-2.53409">
        <ele>10</ele>
        <time>2023-11-04T23:48:03Z</time>
      </trkpt>
      <trkpt lat="47.28859" lon="-2.53522">
        <ele>8</ele>
        <time>2023-11-04T23:49:46Z</time>
      </trkpt>
      <trkpt lat="47.28904" lon="-2.53665">
        <ele>9</ele>
        <time>2023-11-04T23:52:08Z</time>
      </trkpt>
      <trkpt lat="47.28939" lon="-2.53927">
        <ele>5</ele>
        <time>2023-11-04T23:56:10Z</time>
      </trkpt>
      <trkpt lat="47.2906" lon="-2.54342">
        <ele>3</ele>
        <time>2023-11-05T00:02:59Z</time>
      </trkpt>
      <trkpt lat="47.29052" lon="-2.54426">
        <ele>3</ele>
        <time>2023-11-05T00:04:16Z</time>
      </trkpt>
      <trkpt lat="47.29019" lon="-2.54497">
        <ele>3</ele>
        <time>2023-11-05T00:05:34Z</time>
      </trkpt>
      <trkpt lat="47.29041" lon="-2.54557">
        <ele>2</ele>
        <time>2023-11-05T00:06:35Z</time>
      </trkpt>
      <trkpt lat="47.29084" lon="-2.54519">
        <ele>4</ele>
        <time>2023-11-05T00:07:42Z</time>
      </trkpt>
      <trkpt lat="47.29194" lon="-2.54614">
        <ele>5</ele>
        <time>2023-11-05T00:10:32Z</time>
      </trkpt>
      <trkpt lat="47.2925" lon="-2.54711">
        <ele>3</ele>
        <time>2023-11-05T00:12:28Z</time>
      </trkpt>
      <trkpt lat="47.29443" lon="-2.54684">
        <ele>4</ele>
        <time>2023-11-05T00:16:46Z</time>
      </trkpt>
      <trkpt lat="47.29523" lon="-2.5462">
        <ele>4</ele>
        <time>2023-11-05T00:18:48Z</time>
      </trkpt>
      <trkpt lat="47.29645" lon="-2.54578">
        <ele>3</ele>
        <time>2023-11-05T00:21:35Z</time>
      </trkpt>
      <trkpt lat="47.29769" lon="-2.54482">
        <ele>4</ele>
        <time>2023-11-05T00:24:42Z</time>
      </trkpt>
      <trkpt lat="47.29825" lon="-2.54386">
        <ele>3</ele>
        <time>2023-11-05T00:26:37Z</time>
      </trkpt>
      <trkpt lat="47.29865" lon="-2.54336">
        <ele>3</ele>
        <time>2023-11-05T00:27:47Z</time>
      </trkpt>
      <trkpt lat="47.29882" lon="-2.54165">
        <ele>2</ele>
        <time>2023-11-05T00:30:23Z</time>
      </trkpt>
      <trkpt lat="47.29912" lon="-2.54062">
        <ele>2</ele>
        <time>2023-11-05T00:32:04Z</time>
      </trkpt>
      <trkpt lat="47.29959" lon="-2.53974">
        <ele>2</ele>
        <time>2023-11-05T00:33:46Z</time>
      </trkpt>
      <trkpt lat="47.29952" lon="-2.53859">
        <ele>2</ele>
        <time>2023-11-05T00:35:30Z</time>
      </trkpt>
      <trkpt lat="47.2993" lon="-2.53823">
        <ele>3</ele>
        <time>2023-11-05T00:36:14Z</time>
      </trkpt>
      <trkpt lat="47.29907" lon="-2.53692">
        <ele>2</ele>
        <time>2023-11-05T00:38:17Z</time>
      </trkpt>
      <trkpt lat="47.29945" lon="-2.53552">
        <ele>3</ele>
        <time>2023-11-05T00:40:33Z</time>
      </trkpt>
      <trkpt lat="47.30081" lon="-2.53423">
        <ele>2</ele>
        <time>2023-11-05T00:44:09Z</time>
      </trkpt>
      <trkpt lat="47.30049" lon="-2.5326">
        <ele>3</ele>
        <time>2023-11-05T00:46:42Z</time>
      </trkpt>
      <trkpt lat="47.30035" lon="-2.53027">
        <ele>2</ele>
        <time>2023-11-05T00:50:14Z</time>
      </trkpt>
      <trkpt lat="47.30084" lon="-2.52814">
        <ele>4</ele>
        <time>2023-11-05T00:53:38Z</time>
      </trkpt>
      <trkpt lat="47.30092" lon="-2.52667">
        <ele>4</ele>
        <time>2023-11-05T00:55:51Z</time>
      </trkpt>
      <trkpt lat="47.30113" lon="-2.526">
        <ele>3</ele>
        <time>2023-11-05T00:56:58Z</time>
      </trkpt>
      <trkpt lat="47.30118" lon="-2.52482">
        <ele>4</ele>
        <time>2023-11-05T00:58:45Z</time>
      </trkpt>
      <trkpt lat="47.30046" lon="-2.52097">
        <ele>5</ele>
        <time>2023-11-05T01:04:46Z</time>
      </trkpt>
      <trkpt lat="47.30092" lon="-2.5207">
        <ele>3</ele>
        <time>2023-11-05T01:05:52Z</time>
      </trkpt>
      <trkpt lat="47.30007" lon="-2.51892">
        <ele>1</ele>
        <time>2023-11-05T01:09:09Z</time>
      </trkpt>
      <trkpt lat="47.29982" lon="-2.51824">
        <ele>2</ele>
        <time>2023-11-05T01:10:19Z</time>
      </trkpt>
      <trkpt lat="47.30015" lon="-2.51792">
        <time>2023-11-05T01:11:12Z</time>
      </trkpt>
      <trkpt lat="47.29891" lon="-2.51564">
        <ele>2</ele>
        <time>2023-11-05T01:15:37Z</time>
      </trkpt>
      <trkpt lat="47.2986" lon="-2.51464">
        <ele>2</ele>
        <time>2023-11-05T01:17:16Z</time>
      </trkpt>
      <trkpt lat="47.29809" lon="-2.5149">
        <ele>4</ele>
        <time>2023-11-05T01:18:28Z</time>
      </trkpt>
      <trkpt lat="47.29568" lon="-2.51326">
        <ele>6</ele>
        <time>2023-11-05T01:24:22Z</time>
      </trkpt>
      <trkpt lat="47.29373" lon="-2.50938">
        <ele>3</ele>
        <time>2023-11-05T01:31:39Z</time>
      </trkpt>
      <trkpt lat="47.29025" lon="-2.50743">
        <ele>5</ele>
        <time>2023-11-05T01:39:56Z</time>
      </trkpt>
      <trkpt lat="47.2902" lon="-2.50746">
        <ele>5</ele>
        <time>2023-11-05T01:40:03Z</time>
      </trkpt>
      <trkpt lat="47.28901" lon="-2.50646">
        <ele>3</ele>
        <time>2023-11-05T01:43:06Z</time>
      </trkpt>
      <trkpt lat="47.28807" lon="-2.50598">
        <ele>4</ele>
        <time>2023-11-05T01:45:19Z</time>
      </trkpt>
    </trkseg>
  </trk>
  <trk>
    <name><![CDATA[LePouliguen_LeCroisicGranitsCentreMarais_19km-14458865]]></name>
    <extensions>
      <line xmlns="http://www.topografix.com/GPX/gpx_style/0/2">
        <color>ff8040</color>
        <width>4</width>
      </line>
    </extensions>
    <trkseg>
      <trkpt lat="47.28256" lon="-2.43381">
        <ele>2</ele>
        <time>2023-11-04T19:23:53Z</time>
      </trkpt>
      <trkpt lat="47.28194" lon="-2.43294">
        <ele>3</ele>
        <time>2023-11-04T19:25:47Z</time>
      </trkpt>
      <trkpt lat="47.27985" lon="-2.43651">
        <ele>2.7</ele>
        <time>2023-11-04T19:32:54Z</time>
      </trkpt>
      <trkpt lat="47.27799" lon="-2.43825">
        <ele>1</ele>
        <time>2023-11-04T19:37:48Z</time>
      </trkpt>
      <trkpt lat="47.27706" lon="-2.44075">
        <ele>2</ele>
        <time>2023-11-04T19:42:06Z</time>
      </trkpt>
      <trkpt lat="47.27541" lon="-2.44054">
        <ele>3</ele>
        <time>2023-11-04T19:45:47Z</time>
      </trkpt>
      <trkpt lat="47.27418" lon="-2.44157">
        <ele>4</ele>
        <time>2023-11-04T19:48:56Z</time>
      </trkpt>
      <trkpt lat="47.2745" lon="-2.4454">
        <ele>2</ele>
        <time>2023-11-04T19:54:45Z</time>
      </trkpt>
      <trkpt lat="47.27538" lon="-2.44807">
        <ele>3</ele>
        <time>2023-11-04T19:59:14Z</time>
      </trkpt>
      <trkpt lat="47.27503" lon="-2.44848">
        <ele>3</ele>
        <time>2023-11-04T20:00:14Z</time>
      </trkpt>
      <trkpt lat="47.27496" lon="-2.44873">
        <ele>3</ele>
        <time>2023-11-04T20:00:38Z</time>
      </trkpt>
      <trkpt lat="47.2768" lon="-2.45665">
        <ele>8</ele>
        <time>2023-11-04T20:13:16Z</time>
      </trkpt>
      <trkpt lat="47.27623" lon="-2.45699">
        <ele>7</ele>
        <time>2023-11-04T20:14:38Z</time>
      </trkpt>
      <trkpt lat="47.27671" lon="-2.46272">
        <ele>7</ele>
        <time>2023-11-04T20:23:21Z</time>
      </trkpt>
      <trkpt lat="47.27265" lon="-2.46579">
        <ele>9</ele>
        <time>2023-11-04T20:33:30Z</time>
      </trkpt>
      <trkpt lat="47.27121" lon="-2.46817">
        <ele>13</ele>
        <time>2023-11-04T20:38:19Z</time>
      </trkpt>
      <trkpt lat="47.27115" lon="-2.47055">
        <ele>15</ele>
        <time>2023-11-04T20:41:54Z</time>
      </trkpt>
      <trkpt lat="47.27312" lon="-2.4703">
        <ele>15</ele>
        <time>2023-11-04T20:46:18Z</time>
      </trkpt>
      <trkpt lat="47.27432" lon="-2.46967">
        <ele>13</ele>
        <time>2023-11-04T20:49:08Z</time>
      </trkpt>
      <trkpt lat="47.27505" lon="-2.47191">
        <ele>10</ele>
        <time>2023-11-04T20:52:53Z</time>
      </trkpt>
      <trkpt lat="47.27313" lon="-2.47317">
        <ele>13</ele>
        <time>2023-11-04T20:57:34Z</time>
      </trkpt>
      <trkpt lat="47.2729" lon="-2.47383">
        <ele>13</ele>
        <time>2023-11-04T20:58:41Z</time>
      </trkpt>
      <trkpt lat="47.27271" lon="-2.47414">
        <ele>13</ele>
        <time>2023-11-04T20:59:19Z</time>
      </trkpt>
      <trkpt lat="47.27274" lon="-2.47485">
        <ele>12</ele>
        <time>2023-11-04T21:00:23Z</time>
      </trkpt>
      <trkpt lat="47.27307" lon="-2.47582">
        <ele>12</ele>
        <time>2023-11-04T21:02:01Z</time>
      </trkpt>
      <trkpt lat="47.27333" lon="-2.47619">
        <ele>11</ele>
        <time>2023-11-04T21:02:50Z</time>
      </trkpt>
      <trkpt lat="47.274" lon="-2.47675">
        <ele>8</ele>
        <time>2023-11-04T21:04:32Z</time>
      </trkpt>
      <trkpt lat="47.27437" lon="-2.47663">
        <ele>8</ele>
        <time>2023-11-04T21:05:23Z</time>
      </trkpt>
      <trkpt lat="47.27438" lon="-2.47752">
        <ele>7</ele>
        <time>2023-11-04T21:06:44Z</time>
      </trkpt>
      <trkpt lat="47.27471" lon="-2.47814">
        <ele>7</ele>
        <time>2023-11-04T21:07:55Z</time>
      </trkpt>
      <trkpt lat="47.27543" lon="-2.47741">
        <ele>9</ele>
        <time>2023-11-04T21:09:51Z</time>
      </trkpt>
      <trkpt lat="47.27622" lon="-2.47715">
        <ele>11</ele>
        <time>2023-11-04T21:11:40Z</time>
      </trkpt>
      <trkpt lat="47.27672" lon="-2.47963">
        <ele>17</ele>
        <time>2023-11-04T21:15:34Z</time>
      </trkpt>
      <trkpt lat="47.27696" lon="-2.48072">
        <ele>18</ele>
        <time>2023-11-04T21:17:18Z</time>
      </trkpt>
      <trkpt lat="47.28064" lon="-2.4793">
        <ele>6</ele>
        <time>2023-11-04T21:25:45Z</time>
      </trkpt>
      <trkpt lat="47.28138" lon="-2.48364">
        <ele>7</ele>
        <time>2023-11-04T21:32:30Z</time>
      </trkpt>
      <trkpt lat="47.28233" lon="-2.48348">
        <ele>5</ele>
        <time>2023-11-04T21:34:38Z</time>
      </trkpt>
      <trkpt lat="47.28262" lon="-2.48375">
        <ele>4</ele>
        <time>2023-11-04T21:35:24Z</time>
      </trkpt>
      <trkpt lat="47.28285" lon="-2.48361">
        <ele>3</ele>
        <time>2023-11-04T21:35:57Z</time>
      </trkpt>
      <trkpt lat="47.28278" lon="-2.48276">
        <ele>3</ele>
        <time>2023-11-04T21:37:14Z</time>
      </trkpt>
      <trkpt lat="47.28383" lon="-2.48216">
        <ele>1</ele>
        <time>2023-11-04T21:39:45Z</time>
      </trkpt>
      <trkpt lat="47.28427" lon="-2.48226">
        <ele>2.9</ele>
        <time>2023-11-04T21:40:44Z</time>
      </trkpt>
      <trkpt lat="47.28451" lon="-2.48185">
        <ele>2.8</ele>
        <time>2023-11-04T21:41:33Z</time>
      </trkpt>
      <trkpt lat="47.28511" lon="-2.48181">
        <ele>1.7</ele>
        <time>2023-11-04T21:42:53Z</time>
      </trkpt>
      <trkpt lat="47.28542" lon="-2.48229">
        <ele>1.5</ele>
        <time>2023-11-04T21:43:53Z</time>
      </trkpt>
      <trkpt lat="47.28564" lon="-2.48305">
        <ele>2</ele>
        <time>2023-11-04T21:45:08Z</time>
      </trkpt>
      <trkpt lat="47.28489" lon="-2.48311">
        <ele>2</ele>
        <time>2023-11-04T21:46:48Z</time>
      </trkpt>
      <trkpt lat="47.28478" lon="-2.48375">
        <ele>2</ele>
        <time>2023-11-04T21:47:48Z</time>
      </trkpt>
      <trkpt lat="47.28445" lon="-2.48398">
        <ele>1</ele>
        <time>2023-11-04T21:48:37Z</time>
      </trkpt>
      <trkpt lat="47.28434" lon="-2.48532">
        <ele>2</ele>
        <time>2023-11-04T21:50:39Z</time>
      </trkpt>
      <trkpt lat="47.28468" lon="-2.48564">
        <ele>1</ele>
        <time>2023-11-04T21:51:33Z</time>
      </trkpt>
      <trkpt lat="47.28477" lon="-2.48607">
        <ele>1.9</ele>
        <time>2023-11-04T21:52:13Z</time>
      </trkpt>
      <trkpt lat="47.28525" lon="-2.48574">
        <ele>1.4</ele>
        <time>2023-11-04T21:53:24Z</time>
      </trkpt>
      <trkpt lat="47.28566" lon="-2.48515">
        <ele>1.8</ele>
        <time>2023-11-04T21:54:41Z</time>
      </trkpt>
      <trkpt lat="47.28597" lon="-2.48495">
        <ele>2.1</ele>
        <time>2023-11-04T21:55:26Z</time>
      </trkpt>
      <trkpt lat="47.28626" lon="-2.48502">
        <ele>2.5</ele>
        <time>2023-11-04T21:56:05Z</time>
      </trkpt>
      <trkpt lat="47.28666" lon="-2.48659">
        <ele>2.2</ele>
        <time>2023-11-04T21:58:37Z</time>
      </trkpt>
      <trkpt lat="47.28548" lon="-2.48794">
        <ele>2.4</ele>
        <time>2023-11-04T22:01:56Z</time>
      </trkpt>
      <trkpt lat="47.28572" lon="-2.48817">
        <ele>2.4</ele>
        <time>2023-11-04T22:02:34Z</time>
      </trkpt>
      <trkpt lat="47.28582" lon="-2.48854">
        <ele>2</ele>
        <time>2023-11-04T22:03:10Z</time>
      </trkpt>
      <trkpt lat="47.28569" lon="-2.48911">
        <ele>2.4</ele>
        <time>2023-11-04T22:04:05Z</time>
      </trkpt>
      <trkpt lat="47.28526" lon="-2.48927">
        <ele>2</ele>
        <time>2023-11-04T22:05:04Z</time>
      </trkpt>
      <trkpt lat="47.28474" lon="-2.48917">
        <ele>2</ele>
        <time>2023-11-04T22:06:14Z</time>
      </trkpt>
      <trkpt lat="47.28458" lon="-2.48961">
        <ele>2.6</ele>
        <time>2023-11-04T22:06:59Z</time>
      </trkpt>
      <trkpt lat="47.2849" lon="-2.48985">
        <ele>2.4</ele>
        <time>2023-11-04T22:07:47Z</time>
      </trkpt>
      <trkpt lat="47.28577" lon="-2.48973">
        <ele>2</ele>
        <time>2023-11-04T22:09:44Z</time>
      </trkpt>
      <trkpt lat="47.28598" lon="-2.49021">
        <ele>2</ele>
        <time>2023-11-04T22:10:35Z</time>
      </trkpt>
      <trkpt lat="47.28595" lon="-2.49081">
        <ele>1</ele>
        <time>2023-11-04T22:11:30Z</time>
      </trkpt>
      <trkpt lat="47.28611" lon="-2.49161">
        <ele>2</ele>
        <time>2023-11-04T22:12:45Z</time>
      </trkpt>
      <trkpt lat="47.28635" lon="-2.4932">
        <ele>1.9</ele>
        <time>2023-11-04T22:15:13Z</time>
      </trkpt>
      <trkpt lat="47.28633" lon="-2.49628">
        <ele>1.4</ele>
        <time>2023-11-04T22:19:52Z</time>
      </trkpt>
      <trkpt lat="47.28526" lon="-2.4968">
        <ele>1.1</ele>
        <time>2023-11-04T22:22:22Z</time>
      </trkpt>
      <trkpt lat="47.28519" lon="-2.49724">
        <ele>2</ele>
        <time>2023-11-04T22:23:03Z</time>
      </trkpt>
      <trkpt lat="47.28414" lon="-2.49733">
        <ele>2.6</ele>
        <time>2023-11-04T22:25:23Z</time>
      </trkpt>
      <trkpt lat="47.28346" lon="-2.49777">
        <ele>1</ele>
        <time>2023-11-04T22:27:02Z</time>
      </trkpt>
      <trkpt lat="47.28343" lon="-2.49826">
        <ele>2</ele>
        <time>2023-11-04T22:27:47Z</time>
      </trkpt>
      <trkpt lat="47.28387" lon="-2.49844">
        <ele>1</ele>
        <time>2023-11-04T22:28:48Z</time>
      </trkpt>
      <trkpt lat="47.28416" lon="-2.49917">
        <ele>1</ele>
        <time>2023-11-04T22:30:04Z</time>
      </trkpt>
      <trkpt lat="47.28475" lon="-2.49894">
        <ele>2</ele>
        <time>2023-11-04T22:31:26Z</time>
      </trkpt>
      <trkpt lat="47.28523" lon="-2.49891">
        <ele>2.1</ele>
        <time>2023-11-04T22:32:30Z</time>
      </trkpt>
      <trkpt lat="47.28558" lon="-2.50155">
        <ele>1.9</ele>
        <time>2023-11-04T22:36:33Z</time>
      </trkpt>
      <trkpt lat="47.28535" lon="-2.50172">
        <ele>1.8</ele>
        <time>2023-11-04T22:37:08Z</time>
      </trkpt>
      <trkpt lat="47.28504" lon="-2.50158">
        <ele>2.6</ele>
        <time>2023-11-04T22:37:51Z</time>
      </trkpt>
      <trkpt lat="47.28493" lon="-2.50231">
        <ele>2</ele>
        <time>2023-11-04T22:38:59Z</time>
      </trkpt>
      <trkpt lat="47.28396" lon="-2.50279">
        <ele>2</ele>
        <time>2023-11-04T22:41:15Z</time>
      </trkpt>
      <trkpt lat="47.28385" lon="-2.50335">
        <ele>3</ele>
        <time>2023-11-04T22:42:08Z</time>
      </trkpt>
      <trkpt lat="47.28341" lon="-2.50319">
        <ele>4</ele>
        <time>2023-11-04T22:43:09Z</time>
      </trkpt>
      <trkpt lat="47.28277" lon="-2.50254">
        <ele>3</ele>
        <time>2023-11-04T22:44:52Z</time>
      </trkpt>
      <trkpt lat="47.28262" lon="-2.50265">
        <ele>3</ele>
        <time>2023-11-04T22:45:15Z</time>
      </trkpt>
      <trkpt lat="47.28227" lon="-2.50224">
        <ele>5</ele>
        <time>2023-11-04T22:46:14Z</time>
      </trkpt>
      <trkpt lat="47.28199" lon="-2.50245">
        <ele>7</ele>
        <time>2023-11-04T22:46:56Z</time>
      </trkpt>
      <trkpt lat="47.28184" lon="-2.50305">
        <ele>6</ele>
        <time>2023-11-04T22:47:54Z</time>
      </trkpt>
      <trkpt lat="47.28186" lon="-2.50327">
        <ele>5</ele>
        <time>2023-11-04T22:48:14Z</time>
      </trkpt>
      <trkpt lat="47.28102" lon="-2.50411">
        <ele>5</ele>
        <time>2023-11-04T22:50:30Z</time>
      </trkpt>
      <trkpt lat="47.28041" lon="-2.50408">
        <ele>3</ele>
        <time>2023-11-04T22:51:51Z</time>
      </trkpt>
      <trkpt lat="47.28038" lon="-2.5053">
        <ele>3</ele>
        <time>2023-11-04T22:53:42Z</time>
      </trkpt>
      <trkpt lat="47.28067" lon="-2.50561">
        <ele>3</ele>
        <time>2023-11-04T22:54:29Z</time>
      </trkpt>
      <trkpt lat="47.28091" lon="-2.50569">
        <ele>4</ele>
        <time>2023-11-04T22:55:02Z</time>
      </trkpt>
      <trkpt lat="47.28127" lon="-2.50602">
        <ele>4</ele>
        <time>2023-11-04T22:55:59Z</time>
      </trkpt>
      <trkpt lat="47.28143" lon="-2.50596">
        <ele>5</ele>
        <time>2023-11-04T22:56:21Z</time>
      </trkpt>
      <trkpt lat="47.28173" lon="-2.50634">
        <ele>5</ele>
        <time>2023-11-04T22:57:14Z</time>
      </trkpt>
      <trkpt lat="47.28186" lon="-2.50721">
        <ele>4</ele>
        <time>2023-11-04T22:58:34Z</time>
      </trkpt>
      <trkpt lat="47.28239" lon="-2.50974">
        <ele>4</ele>
        <time>2023-11-04T23:02:34Z</time>
      </trkpt>
      <trkpt lat="47.28232" lon="-2.51044">
        <ele>4</ele>
        <time>2023-11-04T23:03:38Z</time>
      </trkpt>
      <trkpt lat="47.28264" lon="-2.5109">
        <ele>5</ele>
        <time>2023-11-04T23:04:38Z</time>
      </trkpt>
      <trkpt lat="47.28296" lon="-2.51186">
        <ele>3</ele>
        <time>2023-11-04T23:06:14Z</time>
      </trkpt>
      <trkpt lat="47.28408" lon="-2.51271">
        <ele>6</ele>
        <time>2023-11-04T23:09:03Z</time>
      </trkpt>
      <trkpt lat="47.2844" lon="-2.51397">
        <ele>6</ele>
        <time>2023-11-04T23:11:04Z</time>
      </trkpt>
      <trkpt lat="47.2852" lon="-2.51515">
        <ele>6</ele>
        <time>2023-11-04T23:13:35Z</time>
      </trkpt>
      <trkpt lat="47.2855" lon="-2.51777">
        <ele>6</ele>
        <time>2023-11-04T23:17:36Z</time>
      </trkpt>
      <trkpt lat="47.28615" lon="-2.5186">
        <ele>8</ele>
        <time>2023-11-04T23:19:31Z</time>
      </trkpt>
      <trkpt lat="47.28622" lon="-2.51911">
        <ele>6</ele>
        <time>2023-11-04T23:20:18Z</time>
      </trkpt>
      <trkpt lat="47.2861" lon="-2.51961">
        <ele>5</ele>
        <time>2023-11-04T23:21:06Z</time>
      </trkpt>
      <trkpt lat="47.28641" lon="-2.52043">
        <ele>8</ele>
        <time>2023-11-04T23:22:31Z</time>
      </trkpt>
      <trkpt lat="47.28632" lon="-2.52064">
        <ele>6</ele>
        <time>2023-11-04T23:22:53Z</time>
      </trkpt>
      <trkpt lat="47.28654" lon="-2.52088">
        <ele>9</ele>
        <time>2023-11-04T23:23:30Z</time>
      </trkpt>
      <trkpt lat="47.28641" lon="-2.52126">
        <ele>7</ele>
        <time>2023-11-04T23:24:08Z</time>
      </trkpt>
      <trkpt lat="47.28654" lon="-2.52152">
        <ele>7</ele>
        <time>2023-11-04T23:24:38Z</time>
      </trkpt>
      <trkpt lat="47.28627" lon="-2.52188">
        <ele>4</ele>
        <time>2023-11-04T23:25:26Z</time>
      </trkpt>
      <trkpt lat="47.28678" lon="-2.52235">
        <ele>6</ele>
        <time>2023-11-04T23:26:46Z</time>
      </trkpt>
      <trkpt lat="47.28701" lon="-2.52217">
        <ele>8</ele>
        <time>2023-11-04T23:27:21Z</time>
      </trkpt>
      <trkpt lat="47.28742" lon="-2.52416">
        <ele>10</ele>
        <time>2023-11-04T23:30:29Z</time>
      </trkpt>
      <trkpt lat="47.28694" lon="-2.52577">
        <ele>5</ele>
        <time>2023-11-04T23:33:09Z</time>
      </trkpt>
      <trkpt lat="47.28718" lon="-2.52674">
        <ele>7</ele>
        <time>2023-11-04T23:34:42Z</time>
      </trkpt>
      <trkpt lat="47.28717" lon="-2.52802">
        <ele>8</ele>
        <time>2023-11-04T23:36:38Z</time>
      </trkpt>
      <trkpt lat="47.28745" lon="-2.52983">
        <ele>11</ele>
        <time>2023-11-04T23:39:26Z</time>
      </trkpt>
      <trkpt lat="47.28751" lon="-2.53151">
        <ele>7</ele>
        <time>2023-11-04T23:41:58Z</time>
      </trkpt>
      <trkpt lat="47.2883" lon="-2.53245">
        <ele>12</ele>
        <time>2023-11-04T23:44:14Z</time>
      </trkpt>
      <trkpt lat="47.2886" lon="-2.53409">
        <ele>10</ele>
        <time>2023-11-04T23:46:47Z</time>
      </trkpt>
      <trkpt lat="47.28859" lon="-2.53522">
        <ele>8</ele>
        <time>2023-11-04T23:48:30Z</time>
      </trkpt>
      <trkpt lat="47.28904" lon="-2.53665">
        <ele>9</ele>
        <time>2023-11-04T23:50:52Z</time>
      </trkpt>
      <trkpt lat="47.28939" lon="-2.53927">
        <ele>5</ele>
        <time>2023-11-04T23:54:54Z</time>
      </trkpt>
      <trkpt lat="47.2906" lon="-2.54342">
        <ele>3</ele>
        <time>2023-11-05T00:01:43Z</time>
      </trkpt>
      <trkpt lat="47.29052" lon="-2.54426">
        <ele>3</ele>
        <time>2023-11-05T00:03:00Z</time>
      </trkpt>
      <trkpt lat="47.29019" lon="-2.54497">
        <ele>3</ele>
        <time>2023-11-05T00:04:18Z</time>
      </trkpt>
      <trkpt lat="47.29041" lon="-2.54557">
        <ele>2</ele>
        <time>2023-11-05T00:05:19Z</time>
      </trkpt>
      <trkpt lat="47.29084" lon="-2.54519">
        <ele>4</ele>
        <time>2023-11-05T00:06:26Z</time>
      </trkpt>
      <trkpt lat="47.29194" lon="-2.54614">
        <ele>5</ele>
        <time>2023-11-05T00:09:16Z</time>
      </trkpt>
      <trkpt lat="47.2925" lon="-2.54711">
        <ele>3</ele>
        <time>2023-11-05T00:11:12Z</time>
      </trkpt>
      <trkpt lat="47.29443" lon="-2.54684">
        <ele>4</ele>
        <time>2023-11-05T00:15:30Z</time>
      </trkpt>
      <trkpt lat="47.29523" lon="-2.5462">
        <ele>4</ele>
        <time>2023-11-05T00:17:32Z</time>
      </trkpt>
      <trkpt lat="47.29645" lon="-2.54578">
        <ele>3</ele>
        <time>2023-11-05T00:20:19Z</time>
      </trkpt>
      <trkpt lat="47.29769" lon="-2.54482">
        <ele>4</ele>
        <time>2023-11-05T00:23:26Z</time>
      </trkpt>
      <trkpt lat="47.29825" lon="-2.54386">
        <ele>3</ele>
        <time>2023-11-05T00:25:21Z</time>
      </trkpt>
      <trkpt lat="47.29865" lon="-2.54336">
        <ele>3</ele>
        <time>2023-11-05T00:26:31Z</time>
      </trkpt>
      <trkpt lat="47.29882" lon="-2.54165">
        <ele>2</ele>
        <time>2023-11-05T00:29:07Z</time>
      </trkpt>
      <trkpt lat="47.29912" lon="-2.54062">
        <ele>2</ele>
        <time>2023-11-05T00:30:48Z</time>
      </trkpt>
      <trkpt lat="47.29959" lon="-2.53974">
        <ele>2</ele>
        <time>2023-11-05T00:32:30Z</time>
      </trkpt>
      <trkpt lat="47.29952" lon="-2.53859">
        <ele>2</ele>
        <time>2023-11-05T00:34:14Z</time>
      </trkpt>
      <trkpt lat="47.2993" lon="-2.53823">
        <ele>3</ele>
        <time>2023-11-05T00:34:58Z</time>
      </trkpt>
      <trkpt lat="47.29907" lon="-2.53692">
        <ele>2</ele>
        <time>2023-11-05T00:37:01Z</time>
      </trkpt>
      <trkpt lat="47.29945" lon="-2.53552">
        <ele>3</ele>
        <time>2023-11-05T00:39:17Z</time>
      </trkpt>
      <trkpt lat="47.30081" lon="-2.53423">
        <ele>2</ele>
        <time>2023-11-05T00:42:53Z</time>
      </trkpt>
      <trkpt lat="47.30049" lon="-2.5326">
        <ele>3</ele>
        <time>2023-11-05T00:45:26Z</time>
      </trkpt>
      <trkpt lat="47.30035" lon="-2.53027">
        <ele>2</ele>
        <time>2023-11-05T00:48:58Z</time>
      </trkpt>
      <trkpt lat="47.30084" lon="-2.52814">
        <ele>4</ele>
        <time>2023-11-05T00:52:22Z</time>
      </trkpt>
      <trkpt lat="47.30092" lon="-2.52667">
        <ele>4</ele>
        <time>2023-11-05T00:54:35Z</time>
      </trkpt>
      <trkpt lat="47.30113" lon="-2.526">
        <ele>3</ele>
        <time>2023-11-05T00:55:42Z</time>
      </trkpt>
      <trkpt lat="47.30118" lon="-2.52482">
        <ele>4</ele>
        <time>2023-11-05T00:57:29Z</time>
      </trkpt>
      <trkpt lat="47.30046" lon="-2.52097">
        <ele>5</ele>
        <time>2023-11-05T01:03:30Z</time>
      </trkpt>
      <trkpt lat="47.30092" lon="-2.5207">
        <ele>3</ele>
        <time>2023-11-05T01:04:36Z</time>
      </trkpt>
      <trkpt lat="47.30007" lon="-2.51892">
        <ele>1</ele>
        <time>2023-11-05T01:07:53Z</time>
      </trkpt>
      <trkpt lat="47.29982" lon="-2.51824">
        <ele>2</ele>
        <time>2023-11-05T01:09:03Z</time>
      </trkpt>
      <trkpt lat="47.30015" lon="-2.51792">
        <time>2023-11-05T01:09:56Z</time>
      </trkpt>
      <trkpt lat="47.29891" lon="-2.51564">
        <ele>2</ele>
        <time>2023-11-05T01:14:21Z</time>
      </trkpt>
      <trkpt lat="47.2986" lon="-2.51464">
        <ele>2</ele>
        <time>2023-11-05T01:16:00Z</time>
      </trkpt>
      <trkpt lat="47.29809" lon="-2.5149">
        <ele>4</ele>
        <time>2023-11-05T01:17:12Z</time>
      </trkpt>
      <trkpt lat="47.29568" lon="-2.51326">
        <ele>6</ele>
        <time>2023-11-05T01:23:06Z</time>
      </trkpt>
      <trkpt lat="47.29373" lon="-2.50938">
        <ele>3</ele>
        <time>2023-11-05T01:30:23Z</time>
      </trkpt>
      <trkpt lat="47.29025" lon="-2.50743">
        <ele>5</ele>
        <time>2023-11-05T01:38:40Z</time>
      </trkpt>
      <trkpt lat="47.2902" lon="-2.50746">
        <ele>5</ele>
        <time>2023-11-05T01:38:47Z</time>
      </trkpt>
      <trkpt lat="47.28901" lon="-2.50646">
        <ele>3</ele>
        <time>2023-11-05T01:41:50Z</time>
      </trkpt>
      <trkpt lat="47.28807" lon="-2.50598">
        <ele>4</ele>
        <time>2023-11-05T01:44:03Z</time>
        <extensions>
          <visugpx:TrkExtension xmlns:visugpx="https://www.visugpx.com/editgpx/">
            <visugpx:node>1</visugpx:node>
            </visugpx:TrkExtension>
        </extensions>
      </trkpt>
    </trkseg>
  </trk>
  <trk>
    <name><![CDATA[Batz_LeCroisic_22.4km-8373671]]></name>
    <extensions>
      <line xmlns="http://www.topografix.com/GPX/gpx_style/0/2">
        <color>FF00FF</color>
        <width>4</width>
      </line>
    </extensions>
    <trkseg>
      <trkpt lat="47.2672" lon="-2.45441">
        <ele>6</ele>
        <time>2023-11-04T19:25:26Z</time>
      </trkpt>
      <trkpt lat="47.26681" lon="-2.45484">
        <ele>3</ele>
        <time>2023-11-04T19:26:31Z</time>
      </trkpt>
      <trkpt lat="47.26623" lon="-2.45424">
        <ele>3</ele>
        <time>2023-11-04T19:28:06Z</time>
      </trkpt>
      <trkpt lat="47.26525" lon="-2.45329">
        <ele>3</ele>
        <time>2023-11-04T19:30:42Z</time>
      </trkpt>
      <trkpt lat="47.26493" lon="-2.45309">
        <ele>4</ele>
        <time>2023-11-04T19:31:28Z</time>
      </trkpt>
      <trkpt lat="47.26489" lon="-2.45299">
        <ele>4</ele>
        <time>2023-11-04T19:31:39Z</time>
      </trkpt>
      <trkpt lat="47.26489" lon="-2.4529">
        <ele>5</ele>
        <time>2023-11-04T19:31:47Z</time>
      </trkpt>
      <trkpt lat="47.26484" lon="-2.45286">
        <ele>5</ele>
        <time>2023-11-04T19:31:55Z</time>
      </trkpt>
      <trkpt lat="47.26474" lon="-2.45304">
        <ele>4</ele>
        <time>2023-11-04T19:32:16Z</time>
      </trkpt>
      <trkpt lat="47.26445" lon="-2.45283">
        <ele>4</ele>
        <time>2023-11-04T19:32:59Z</time>
      </trkpt>
      <trkpt lat="47.26426" lon="-2.45276">
        <ele>4</ele>
        <time>2023-11-04T19:33:25Z</time>
      </trkpt>
      <trkpt lat="47.26409" lon="-2.45257">
        <ele>4</ele>
        <time>2023-11-04T19:33:54Z</time>
      </trkpt>
      <trkpt lat="47.2641" lon="-2.4525">
        <ele>5</ele>
        <time>2023-11-04T19:34:00Z</time>
      </trkpt>
      <trkpt lat="47.26485" lon="-2.45186">
        <ele>9</ele>
        <time>2023-11-04T19:35:56Z</time>
      </trkpt>
      <trkpt lat="47.26506" lon="-2.45182">
        <ele>10</ele>
        <time>2023-11-04T19:36:24Z</time>
      </trkpt>
      <trkpt lat="47.26518" lon="-2.4519">
        <ele>10</ele>
        <time>2023-11-04T19:36:41Z</time>
      </trkpt>
      <trkpt lat="47.26539" lon="-2.45135">
        <ele>10</ele>
        <time>2023-11-04T19:37:39Z</time>
      </trkpt>
      <trkpt lat="47.26541" lon="-2.45117">
        <ele>10</ele>
        <time>2023-11-04T19:37:55Z</time>
      </trkpt>
      <trkpt lat="47.26561" lon="-2.45088">
        <ele>10</ele>
        <time>2023-11-04T19:38:33Z</time>
      </trkpt>
      <trkpt lat="47.26576" lon="-2.4508">
        <ele>10</ele>
        <time>2023-11-04T19:38:54Z</time>
      </trkpt>
      <trkpt lat="47.26601" lon="-2.45048">
        <ele>11</ele>
        <time>2023-11-04T19:39:38Z</time>
      </trkpt>
      <trkpt lat="47.26615" lon="-2.45012">
        <ele>11</ele>
        <time>2023-11-04T19:40:16Z</time>
      </trkpt>
      <trkpt lat="47.26685" lon="-2.44922">
        <ele>10</ele>
        <time>2023-11-04T19:42:20Z</time>
      </trkpt>
      <trkpt lat="47.26698" lon="-2.44892">
        <ele>10</ele>
        <time>2023-11-04T19:42:52Z</time>
      </trkpt>
      <trkpt lat="47.26732" lon="-2.44841">
        <ele>11</ele>
        <time>2023-11-04T19:43:57Z</time>
      </trkpt>
      <trkpt lat="47.26741" lon="-2.44817">
        <ele>11</ele>
        <time>2023-11-04T19:44:21Z</time>
      </trkpt>
      <trkpt lat="47.26751" lon="-2.44818">
        <ele>11</ele>
        <time>2023-11-04T19:44:35Z</time>
      </trkpt>
      <trkpt lat="47.26762" lon="-2.44827">
        <ele>11</ele>
        <time>2023-11-04T19:44:52Z</time>
      </trkpt>
      <trkpt lat="47.26802" lon="-2.44815">
        <ele>12</ele>
        <time>2023-11-04T19:45:46Z</time>
      </trkpt>
      <trkpt lat="47.26849" lon="-2.44861">
        <ele>12</ele>
        <time>2023-11-04T19:47:01Z</time>
      </trkpt>
      <trkpt lat="47.26869" lon="-2.44862">
        <ele>12</ele>
        <time>2023-11-04T19:47:28Z</time>
      </trkpt>
      <trkpt lat="47.26879" lon="-2.44887">
        <ele>11</ele>
        <time>2023-11-04T19:47:54Z</time>
      </trkpt>
      <trkpt lat="47.26878" lon="-2.44897">
        <ele>11</ele>
        <time>2023-11-04T19:48:03Z</time>
      </trkpt>
      <trkpt lat="47.26875" lon="-2.44894">
        <ele>11</ele>
        <time>2023-11-04T19:48:08Z</time>
      </trkpt>
      <trkpt lat="47.26875" lon="-2.44906">
        <ele>11</ele>
        <time>2023-11-04T19:48:19Z</time>
      </trkpt>
      <trkpt lat="47.26886" lon="-2.44961">
        <ele>10</ele>
        <time>2023-11-04T19:49:11Z</time>
      </trkpt>
      <trkpt lat="47.26957" lon="-2.45004">
        <ele>9</ele>
        <time>2023-11-04T19:50:54Z</time>
      </trkpt>
      <trkpt lat="47.26982" lon="-2.45004">
        <ele>8</ele>
        <time>2023-11-04T19:51:27Z</time>
      </trkpt>
      <trkpt lat="47.26994" lon="-2.44997">
        <ele>8</ele>
        <time>2023-11-04T19:51:44Z</time>
      </trkpt>
      <trkpt lat="47.27024" lon="-2.45">
        <ele>8</ele>
        <time>2023-11-04T19:52:24Z</time>
      </trkpt>
      <trkpt lat="47.27045" lon="-2.44994">
        <ele>8</ele>
        <time>2023-11-04T19:52:53Z</time>
      </trkpt>
      <trkpt lat="47.27134" lon="-2.45008">
        <ele>7</ele>
        <time>2023-11-04T19:54:52Z</time>
      </trkpt>
      <trkpt lat="47.27214" lon="-2.44995">
        <ele>5</ele>
        <time>2023-11-04T19:56:40Z</time>
      </trkpt>
      <trkpt lat="47.27285" lon="-2.44967">
        <ele>5</ele>
        <time>2023-11-04T19:58:18Z</time>
      </trkpt>
      <trkpt lat="47.27309" lon="-2.44972">
        <ele>4</ele>
        <time>2023-11-04T19:58:50Z</time>
      </trkpt>
      <trkpt lat="47.27355" lon="-2.44953">
        <ele>4</ele>
        <time>2023-11-04T19:59:54Z</time>
      </trkpt>
      <trkpt lat="47.27411" lon="-2.44921">
        <ele>4</ele>
        <time>2023-11-04T20:01:14Z</time>
      </trkpt>
      <trkpt lat="47.27453" lon="-2.44886">
        <ele>3</ele>
        <time>2023-11-04T20:02:18Z</time>
      </trkpt>
      <trkpt lat="47.27466" lon="-2.44865">
        <ele>3</ele>
        <time>2023-11-04T20:02:44Z</time>
      </trkpt>
      <trkpt lat="47.27494" lon="-2.44862">
        <ele>3</ele>
        <time>2023-11-04T20:03:22Z</time>
      </trkpt>
      <trkpt lat="47.27506" lon="-2.44871">
        <ele>3</ele>
        <time>2023-11-04T20:03:40Z</time>
      </trkpt>
      <trkpt lat="47.27528" lon="-2.44966">
        <ele>4</ele>
        <time>2023-11-04T20:05:10Z</time>
      </trkpt>
      <trkpt lat="47.2758" lon="-2.45091">
        <ele>2</ele>
        <time>2023-11-04T20:07:23Z</time>
      </trkpt>
      <trkpt lat="47.27595" lon="-2.45145">
        <ele>2</ele>
        <time>2023-11-04T20:08:16Z</time>
      </trkpt>
      <trkpt lat="47.27623" lon="-2.45454">
        <ele>7</ele>
        <time>2023-11-04T20:12:58Z</time>
      </trkpt>
      <trkpt lat="47.27646" lon="-2.45564">
        <ele>9</ele>
        <time>2023-11-04T20:14:42Z</time>
      </trkpt>
      <trkpt lat="47.27672" lon="-2.45657">
        <ele>8</ele>
        <time>2023-11-04T20:16:14Z</time>
      </trkpt>
      <trkpt lat="47.27663" lon="-2.45681">
        <ele>8</ele>
        <time>2023-11-04T20:16:38Z</time>
      </trkpt>
      <trkpt lat="47.27634" lon="-2.45703">
        <ele>7</ele>
        <time>2023-11-04T20:17:22Z</time>
      </trkpt>
      <trkpt lat="47.27642" lon="-2.45771">
        <ele>6</ele>
        <time>2023-11-04T20:18:24Z</time>
      </trkpt>
      <trkpt lat="47.27638" lon="-2.45816">
        <ele>5</ele>
        <time>2023-11-04T20:19:05Z</time>
      </trkpt>
      <trkpt lat="47.27639" lon="-2.45994">
        <ele>4</ele>
        <time>2023-11-04T20:21:47Z</time>
      </trkpt>
      <trkpt lat="47.2765" lon="-2.46042">
        <ele>4</ele>
        <time>2023-11-04T20:22:33Z</time>
      </trkpt>
      <trkpt lat="47.27663" lon="-2.46134">
        <ele>5</ele>
        <time>2023-11-04T20:23:58Z</time>
      </trkpt>
      <trkpt lat="47.2767" lon="-2.46155">
        <ele>5</ele>
        <time>2023-11-04T20:24:19Z</time>
      </trkpt>
      <trkpt lat="47.2767" lon="-2.46267">
        <ele>7</ele>
        <time>2023-11-04T20:26:00Z</time>
      </trkpt>
      <trkpt lat="47.27659" lon="-2.46294">
        <ele>7</ele>
        <time>2023-11-04T20:26:29Z</time>
      </trkpt>
      <trkpt lat="47.27675" lon="-2.46338">
        <ele>6</ele>
        <time>2023-11-04T20:27:14Z</time>
      </trkpt>
      <trkpt lat="47.27696" lon="-2.46419">
        <ele>6</ele>
        <time>2023-11-04T20:28:32Z</time>
      </trkpt>
      <trkpt lat="47.27716" lon="-2.46451">
        <ele>6</ele>
        <time>2023-11-04T20:29:12Z</time>
      </trkpt>
      <trkpt lat="47.2775" lon="-2.46579">
        <ele>6</ele>
        <time>2023-11-04T20:31:16Z</time>
      </trkpt>
      <trkpt lat="47.27763" lon="-2.46597">
        <ele>6</ele>
        <time>2023-11-04T20:31:40Z</time>
      </trkpt>
      <trkpt lat="47.2777" lon="-2.46662">
        <ele>5</ele>
        <time>2023-11-04T20:32:40Z</time>
      </trkpt>
      <trkpt lat="47.27756" lon="-2.46704">
        <ele>4</ele>
        <time>2023-11-04T20:33:22Z</time>
      </trkpt>
      <trkpt lat="47.27766" lon="-2.46723">
        <ele>4</ele>
        <time>2023-11-04T20:33:44Z</time>
      </trkpt>
      <trkpt lat="47.27785" lon="-2.46847">
        <ele>4</ele>
        <time>2023-11-04T20:35:39Z</time>
      </trkpt>
      <trkpt lat="47.2782" lon="-2.46938">
        <ele>4</ele>
        <time>2023-11-04T20:37:14Z</time>
      </trkpt>
      <trkpt lat="47.27853" lon="-2.46954">
        <ele>4</ele>
        <time>2023-11-04T20:38:00Z</time>
      </trkpt>
      <trkpt lat="47.27887" lon="-2.46982">
        <ele>4</ele>
        <time>2023-11-04T20:38:52Z</time>
      </trkpt>
      <trkpt lat="47.27939" lon="-2.4705">
        <ele>5</ele>
        <time>2023-11-04T20:40:25Z</time>
      </trkpt>
      <trkpt lat="47.27951" lon="-2.47075">
        <ele>5</ele>
        <time>2023-11-04T20:40:52Z</time>
      </trkpt>
      <trkpt lat="47.27967" lon="-2.47141">
        <ele>5</ele>
        <time>2023-11-04T20:41:56Z</time>
      </trkpt>
      <trkpt lat="47.28002" lon="-2.47326">
        <ele>5</ele>
        <time>2023-11-04T20:44:50Z</time>
      </trkpt>
      <trkpt lat="47.27996" lon="-2.4739">
        <ele>6</ele>
        <time>2023-11-04T20:45:48Z</time>
      </trkpt>
      <trkpt lat="47.27999" lon="-2.47402">
        <ele>7</ele>
        <time>2023-11-04T20:46:00Z</time>
      </trkpt>
      <trkpt lat="47.28022" lon="-2.47411">
        <ele>6</ele>
        <time>2023-11-04T20:46:32Z</time>
      </trkpt>
      <trkpt lat="47.28035" lon="-2.47459">
        <ele>5</ele>
        <time>2023-11-04T20:47:18Z</time>
      </trkpt>
      <trkpt lat="47.28041" lon="-2.47555">
        <ele>5</ele>
        <time>2023-11-04T20:48:46Z</time>
      </trkpt>
      <trkpt lat="47.28049" lon="-2.47592">
        <ele>5</ele>
        <time>2023-11-04T20:49:21Z</time>
      </trkpt>
      <trkpt lat="47.28057" lon="-2.47686">
        <ele>4</ele>
        <time>2023-11-04T20:50:47Z</time>
      </trkpt>
      <trkpt lat="47.28064" lon="-2.47727">
        <ele>4</ele>
        <time>2023-11-04T20:51:25Z</time>
      </trkpt>
      <trkpt lat="47.28083" lon="-2.4774">
        <ele>4</ele>
        <time>2023-11-04T20:51:53Z</time>
      </trkpt>
      <trkpt lat="47.28107" lon="-2.47856">
        <ele>6</ele>
        <time>2023-11-04T20:53:43Z</time>
      </trkpt>
      <trkpt lat="47.28139" lon="-2.47857">
        <ele>5</ele>
        <time>2023-11-04T20:54:25Z</time>
      </trkpt>
      <trkpt lat="47.28255" lon="-2.47799">
        <ele>3</ele>
        <time>2023-11-04T20:57:09Z</time>
      </trkpt>
      <trkpt lat="47.28277" lon="-2.47802">
        <ele>2</ele>
        <time>2023-11-04T20:57:38Z</time>
      </trkpt>
      <trkpt lat="47.28305" lon="-2.47811">
        <ele>2</ele>
        <time>2023-11-04T20:58:16Z</time>
      </trkpt>
      <trkpt lat="47.28319" lon="-2.47842">
        <ele>1</ele>
        <time>2023-11-04T20:58:50Z</time>
      </trkpt>
      <trkpt lat="47.28314" lon="-2.47893">
        <ele>2</ele>
        <time>2023-11-04T20:59:37Z</time>
      </trkpt>
      <trkpt lat="47.28216" lon="-2.48171">
        <ele>4</ele>
        <time>2023-11-04T21:04:20Z</time>
      </trkpt>
      <trkpt lat="47.28191" lon="-2.48301">
        <ele>6</ele>
        <time>2023-11-04T21:06:23Z</time>
      </trkpt>
      <trkpt lat="47.28225" lon="-2.48334">
        <ele>5</ele>
        <time>2023-11-04T21:07:17Z</time>
      </trkpt>
      <trkpt lat="47.28272" lon="-2.4837">
        <ele>4</ele>
        <time>2023-11-04T21:08:28Z</time>
      </trkpt>
      <trkpt lat="47.283" lon="-2.4838">
        <ele>3</ele>
        <time>2023-11-04T21:09:06Z</time>
      </trkpt>
      <trkpt lat="47.28361" lon="-2.4836">
        <ele>2</ele>
        <time>2023-11-04T21:10:30Z</time>
      </trkpt>
      <trkpt lat="47.28394" lon="-2.48357">
        <ele>1</ele>
        <time>2023-11-04T21:11:14Z</time>
      </trkpt>
      <trkpt lat="47.28419" lon="-2.48374">
        <ele>3.4</ele>
        <time>2023-11-04T21:11:50Z</time>
      </trkpt>
      <trkpt lat="47.28451" lon="-2.48403">
        <ele>2.8</ele>
        <time>2023-11-04T21:12:41Z</time>
      </trkpt>
      <trkpt lat="47.2843" lon="-2.48521">
        <ele>2</ele>
        <time>2023-11-04T21:14:31Z</time>
      </trkpt>
      <trkpt lat="47.28434" lon="-2.48541">
        <ele>2</ele>
        <time>2023-11-04T21:14:50Z</time>
      </trkpt>
      <trkpt lat="47.28466" lon="-2.48566">
        <ele>1</ele>
        <time>2023-11-04T21:15:38Z</time>
      </trkpt>
      <trkpt lat="47.2848" lon="-2.48609">
        <ele>1.7</ele>
        <time>2023-11-04T21:16:21Z</time>
      </trkpt>
      <trkpt lat="47.28469" lon="-2.48645">
        <ele>1.9</ele>
        <time>2023-11-04T21:16:57Z</time>
      </trkpt>
      <trkpt lat="47.28471" lon="-2.48679">
        <ele>1.5</ele>
        <time>2023-11-04T21:17:28Z</time>
      </trkpt>
      <trkpt lat="47.28551" lon="-2.48795">
        <ele>2.5</ele>
        <time>2023-11-04T21:19:58Z</time>
      </trkpt>
      <trkpt lat="47.28578" lon="-2.48839">
        <ele>2.2</ele>
        <time>2023-11-04T21:20:51Z</time>
      </trkpt>
      <trkpt lat="47.28571" lon="-2.48912">
        <ele>2.4</ele>
        <time>2023-11-04T21:21:58Z</time>
      </trkpt>
      <trkpt lat="47.28507" lon="-2.48922">
        <ele>2</ele>
        <time>2023-11-04T21:23:24Z</time>
      </trkpt>
      <trkpt lat="47.2847" lon="-2.48913">
        <ele>2</ele>
        <time>2023-11-04T21:24:14Z</time>
      </trkpt>
      <trkpt lat="47.2846" lon="-2.48962">
        <ele>2.7</ele>
        <time>2023-11-04T21:25:00Z</time>
      </trkpt>
      <trkpt lat="47.28488" lon="-2.48978">
        <ele>2.7</ele>
        <time>2023-11-04T21:25:41Z</time>
      </trkpt>
      <trkpt lat="47.28535" lon="-2.4897">
        <ele>2</ele>
        <time>2023-11-04T21:26:44Z</time>
      </trkpt>
      <trkpt lat="47.28575" lon="-2.48975">
        <ele>2</ele>
        <time>2023-11-04T21:27:37Z</time>
      </trkpt>
      <trkpt lat="47.28592" lon="-2.49016">
        <ele>2</ele>
        <time>2023-11-04T21:28:21Z</time>
      </trkpt>
      <trkpt lat="47.28593" lon="-2.49088">
        <ele>1</ele>
        <time>2023-11-04T21:29:26Z</time>
      </trkpt>
      <trkpt lat="47.28606" lon="-2.49159">
        <ele>1.8</ele>
        <time>2023-11-04T21:30:33Z</time>
      </trkpt>
      <trkpt lat="47.2861" lon="-2.49225">
        <ele>1.1</ele>
        <time>2023-11-04T21:31:32Z</time>
      </trkpt>
      <trkpt lat="47.28628" lon="-2.49305">
        <ele>1.6</ele>
        <time>2023-11-04T21:32:49Z</time>
      </trkpt>
      <trkpt lat="47.28632" lon="-2.49626">
        <ele>1.5</ele>
        <time>2023-11-04T21:37:39Z</time>
      </trkpt>
      <trkpt lat="47.28608" lon="-2.49646">
        <ele>1.7</ele>
        <time>2023-11-04T21:38:16Z</time>
      </trkpt>
      <trkpt lat="47.28558" lon="-2.49659">
        <ele>1.7</ele>
        <time>2023-11-04T21:39:24Z</time>
      </trkpt>
      <trkpt lat="47.28524" lon="-2.49673">
        <ele>1.1</ele>
        <time>2023-11-04T21:40:11Z</time>
      </trkpt>
      <trkpt lat="47.28515" lon="-2.49689">
        <ele>1.5</ele>
        <time>2023-11-04T21:40:30Z</time>
      </trkpt>
      <trkpt lat="47.28517" lon="-2.49712">
        <ele>1.8</ele>
        <time>2023-11-04T21:40:51Z</time>
      </trkpt>
      <trkpt lat="47.28442" lon="-2.4973">
        <ele>1.8</ele>
        <time>2023-11-04T21:42:32Z</time>
      </trkpt>
      <trkpt lat="47.28403" lon="-2.4973">
        <ele>2.4</ele>
        <time>2023-11-04T21:43:24Z</time>
      </trkpt>
      <trkpt lat="47.28339" lon="-2.49777">
        <ele>2</ele>
        <time>2023-11-04T21:45:00Z</time>
      </trkpt>
      <trkpt lat="47.28268" lon="-2.49759">
        <ele>5</ele>
        <time>2023-11-04T21:46:36Z</time>
      </trkpt>
      <trkpt lat="47.28232" lon="-2.49759">
        <ele>6</ele>
        <time>2023-11-04T21:47:24Z</time>
      </trkpt>
      <trkpt lat="47.28176" lon="-2.49748">
        <ele>7</ele>
        <time>2023-11-04T21:48:39Z</time>
      </trkpt>
      <trkpt lat="47.28141" lon="-2.49747">
        <ele>7</ele>
        <time>2023-11-04T21:49:26Z</time>
      </trkpt>
      <trkpt lat="47.28173" lon="-2.49913">
        <ele>8</ele>
        <time>2023-11-04T21:52:02Z</time>
      </trkpt>
      <trkpt lat="47.28208" lon="-2.50141">
        <ele>6</ele>
        <time>2023-11-04T21:55:34Z</time>
      </trkpt>
      <trkpt lat="47.28226" lon="-2.50195">
        <ele>5</ele>
        <time>2023-11-04T21:56:28Z</time>
      </trkpt>
      <trkpt lat="47.28259" lon="-2.50243">
        <ele>3</ele>
        <time>2023-11-04T21:57:30Z</time>
      </trkpt>
      <trkpt lat="47.2841" lon="-2.50353">
        <ele>3</ele>
        <time>2023-11-04T22:01:15Z</time>
      </trkpt>
      <trkpt lat="47.28527" lon="-2.50423">
        <ele>6</ele>
        <time>2023-11-04T22:04:03Z</time>
      </trkpt>
      <trkpt lat="47.28558" lon="-2.50449">
        <ele>5</ele>
        <time>2023-11-04T22:04:51Z</time>
      </trkpt>
      <trkpt lat="47.28693" lon="-2.50534">
        <ele>5</ele>
        <time>2023-11-04T22:08:07Z</time>
      </trkpt>
      <trkpt lat="47.28731" lon="-2.50565">
        <ele>5</ele>
        <time>2023-11-04T22:09:05Z</time>
      </trkpt>
      <trkpt lat="47.28859" lon="-2.5063">
        <ele>4</ele>
        <time>2023-11-04T22:12:06Z</time>
      </trkpt>
      <trkpt lat="47.28889" lon="-2.50653">
        <ele>4</ele>
        <time>2023-11-04T22:12:51Z</time>
      </trkpt>
      <trkpt lat="47.28912" lon="-2.50682">
        <ele>3</ele>
        <time>2023-11-04T22:13:31Z</time>
      </trkpt>
      <trkpt lat="47.28962" lon="-2.50732">
        <ele>4</ele>
        <time>2023-11-04T22:14:52Z</time>
      </trkpt>
      <trkpt lat="47.29001" lon="-2.50751">
        <ele>4</ele>
        <time>2023-11-04T22:15:47Z</time>
      </trkpt>
      <trkpt lat="47.29021" lon="-2.50749">
        <ele>5</ele>
        <time>2023-11-04T22:16:13Z</time>
      </trkpt>
      <trkpt lat="47.29024" lon="-2.50742">
        <ele>5</ele>
        <time>2023-11-04T22:16:21Z</time>
      </trkpt>
      <trkpt lat="47.29044" lon="-2.5068">
        <ele>5</ele>
        <time>2023-11-04T22:17:23Z</time>
      </trkpt>
      <trkpt lat="47.29045" lon="-2.50635">
        <ele>4</ele>
        <time>2023-11-04T22:18:04Z</time>
      </trkpt>
      <trkpt lat="47.29055" lon="-2.50591">
        <ele>4</ele>
        <time>2023-11-04T22:18:46Z</time>
      </trkpt>
      <trkpt lat="47.2906" lon="-2.50579">
        <ele>4</ele>
        <time>2023-11-04T22:18:58Z</time>
      </trkpt>
      <trkpt lat="47.29083" lon="-2.50549">
        <ele>4</ele>
        <time>2023-11-04T22:19:39Z</time>
      </trkpt>
      <trkpt lat="47.29113" lon="-2.50469">
        <ele>4</ele>
        <time>2023-11-04T22:21:02Z</time>
      </trkpt>
      <trkpt lat="47.29138" lon="-2.50456">
        <ele>3</ele>
        <time>2023-11-04T22:21:38Z</time>
      </trkpt>
      <trkpt lat="47.29204" lon="-2.50489">
        <ele>4</ele>
        <time>2023-11-04T22:23:11Z</time>
      </trkpt>
      <trkpt lat="47.29227" lon="-2.50521">
        <ele>4</ele>
        <time>2023-11-04T22:23:53Z</time>
      </trkpt>
      <trkpt lat="47.29229" lon="-2.50542">
        <ele>5</ele>
        <time>2023-11-04T22:24:12Z</time>
      </trkpt>
      <trkpt lat="47.29228" lon="-2.50558">
        <ele>5</ele>
        <time>2023-11-04T22:24:26Z</time>
      </trkpt>
      <trkpt lat="47.29206" lon="-2.50592">
        <ele>7</ele>
        <time>2023-11-04T22:25:09Z</time>
      </trkpt>
      <trkpt lat="47.29209" lon="-2.50706">
        <ele>6</ele>
        <time>2023-11-04T22:26:52Z</time>
      </trkpt>
      <trkpt lat="47.29203" lon="-2.50768">
        <ele>5</ele>
        <time>2023-11-04T22:27:49Z</time>
      </trkpt>
      <trkpt lat="47.29215" lon="-2.50801">
        <ele>4</ele>
        <time>2023-11-04T22:28:23Z</time>
      </trkpt>
      <trkpt lat="47.29254" lon="-2.50859">
        <ele>3</ele>
        <time>2023-11-04T22:29:37Z</time>
      </trkpt>
      <trkpt lat="47.29296" lon="-2.50894">
        <ele>4</ele>
        <time>2023-11-04T22:30:41Z</time>
      </trkpt>
      <trkpt lat="47.29347" lon="-2.50926">
        <ele>3</ele>
        <time>2023-11-04T22:31:55Z</time>
      </trkpt>
      <trkpt lat="47.29356" lon="-2.50924">
        <ele>3</ele>
        <time>2023-11-04T22:32:07Z</time>
      </trkpt>
      <trkpt lat="47.29363" lon="-2.50929">
        <ele>3</ele>
        <time>2023-11-04T22:32:18Z</time>
      </trkpt>
      <trkpt lat="47.29389" lon="-2.50979">
        <ele>5</ele>
        <time>2023-11-04T22:33:15Z</time>
      </trkpt>
      <trkpt lat="47.2939" lon="-2.50998">
        <ele>7</ele>
        <time>2023-11-04T22:33:32Z</time>
      </trkpt>
      <trkpt lat="47.29403" lon="-2.51022">
        <ele>7</ele>
        <time>2023-11-04T22:34:00Z</time>
      </trkpt>
      <trkpt lat="47.29494" lon="-2.51139">
        <ele>6</ele>
        <time>2023-11-04T22:36:41Z</time>
      </trkpt>
      <trkpt lat="47.29512" lon="-2.51229">
        <ele>7</ele>
        <time>2023-11-04T22:38:06Z</time>
      </trkpt>
      <trkpt lat="47.29522" lon="-2.51241">
        <ele>6</ele>
        <time>2023-11-04T22:38:23Z</time>
      </trkpt>
      <trkpt lat="47.2954" lon="-2.51306">
        <ele>6</ele>
        <time>2023-11-04T22:39:26Z</time>
      </trkpt>
      <trkpt lat="47.29591" lon="-2.51334">
        <ele>6</ele>
        <time>2023-11-04T22:40:39Z</time>
      </trkpt>
      <trkpt lat="47.29675" lon="-2.51404">
        <ele>4</ele>
        <time>2023-11-04T22:42:48Z</time>
      </trkpt>
      <trkpt lat="47.29761" lon="-2.51457">
        <ele>4</ele>
        <time>2023-11-04T22:44:52Z</time>
      </trkpt>
      <trkpt lat="47.2979" lon="-2.5147">
        <ele>4</ele>
        <time>2023-11-04T22:45:33Z</time>
      </trkpt>
      <trkpt lat="47.2982" lon="-2.5147">
        <ele>3</ele>
        <time>2023-11-04T22:46:13Z</time>
      </trkpt>
      <trkpt lat="47.29856" lon="-2.51479">
        <ele>2</ele>
        <time>2023-11-04T22:47:01Z</time>
      </trkpt>
      <trkpt lat="47.29868" lon="-2.51489">
        <ele>2</ele>
        <time>2023-11-04T22:47:20Z</time>
      </trkpt>
      <trkpt lat="47.29882" lon="-2.51522">
        <ele>2</ele>
        <time>2023-11-04T22:47:55Z</time>
      </trkpt>
      <trkpt lat="47.29903" lon="-2.51595">
        <ele>2</ele>
        <time>2023-11-04T22:49:07Z</time>
      </trkpt>
      <trkpt lat="47.29941" lon="-2.5167">
        <ele>2</ele>
        <time>2023-11-04T22:50:32Z</time>
      </trkpt>
      <trkpt lat="47.30008" lon="-2.51786">
        <time>2023-11-04T22:52:49Z</time>
      </trkpt>
      <trkpt lat="47.30002" lon="-2.51801">
        <ele>1</ele>
        <time>2023-11-04T22:53:05Z</time>
      </trkpt>
      <trkpt lat="47.29986" lon="-2.5182">
        <ele>2</ele>
        <time>2023-11-04T22:53:33Z</time>
      </trkpt>
      <trkpt lat="47.29987" lon="-2.51873">
        <ele>2</ele>
        <time>2023-11-04T22:54:21Z</time>
      </trkpt>
      <trkpt lat="47.30005" lon="-2.51909">
        <ele>1</ele>
        <time>2023-11-04T22:55:01Z</time>
      </trkpt>
      <trkpt lat="47.30022" lon="-2.51926">
        <ele>1</ele>
        <time>2023-11-04T22:55:29Z</time>
      </trkpt>
      <trkpt lat="47.30046" lon="-2.51965">
        <ele>2</ele>
        <time>2023-11-04T22:56:16Z</time>
      </trkpt>
      <trkpt lat="47.30078" lon="-2.52029">
        <ele>3</ele>
        <time>2023-11-04T22:57:28Z</time>
      </trkpt>
      <trkpt lat="47.30078" lon="-2.52071">
        <ele>4</ele>
        <time>2023-11-04T22:58:06Z</time>
      </trkpt>
      <trkpt lat="47.30058" lon="-2.52085">
        <ele>4</ele>
        <time>2023-11-04T22:58:36Z</time>
      </trkpt>
      <trkpt lat="47.30039" lon="-2.52082">
        <ele>5</ele>
        <time>2023-11-04T22:59:01Z</time>
      </trkpt>
      <trkpt lat="47.30034" lon="-2.5209">
        <ele>5</ele>
        <time>2023-11-04T22:59:11Z</time>
      </trkpt>
      <trkpt lat="47.30045" lon="-2.52155">
        <ele>5</ele>
        <time>2023-11-04T23:00:12Z</time>
      </trkpt>
      <trkpt lat="47.30074" lon="-2.52476">
        <ele>4</ele>
        <time>2023-11-04T23:05:05Z</time>
      </trkpt>
      <trkpt lat="47.30084" lon="-2.52522">
        <ele>4</ele>
        <time>2023-11-04T23:05:48Z</time>
      </trkpt>
      <trkpt lat="47.30103" lon="-2.52682">
        <ele>4</ele>
        <time>2023-11-04T23:08:15Z</time>
      </trkpt>
      <trkpt lat="47.30093" lon="-2.52742">
        <ele>5</ele>
        <time>2023-11-04T23:09:11Z</time>
      </trkpt>
      <trkpt lat="47.3009" lon="-2.52802">
        <ele>4</ele>
        <time>2023-11-04T23:10:06Z</time>
      </trkpt>
      <trkpt lat="47.3008" lon="-2.52879">
        <ele>3</ele>
        <time>2023-11-04T23:11:17Z</time>
      </trkpt>
      <trkpt lat="47.30065" lon="-2.5294">
        <ele>2</ele>
        <time>2023-11-04T23:12:15Z</time>
      </trkpt>
      <trkpt lat="47.30044" lon="-2.52999">
        <ele>1</ele>
        <time>2023-11-04T23:13:16Z</time>
      </trkpt>
      <trkpt lat="47.30037" lon="-2.53035">
        <ele>2</ele>
        <time>2023-11-04T23:13:50Z</time>
      </trkpt>
      <trkpt lat="47.3005" lon="-2.53255">
        <ele>3</ele>
        <time>2023-11-04T23:17:09Z</time>
      </trkpt>
      <trkpt lat="47.30067" lon="-2.53308">
        <ele>3</ele>
        <time>2023-11-04T23:18:03Z</time>
      </trkpt>
      <trkpt lat="47.3008" lon="-2.53389">
        <ele>2</ele>
        <time>2023-11-04T23:19:18Z</time>
      </trkpt>
      <trkpt lat="47.30074" lon="-2.53418">
        <ele>2</ele>
        <time>2023-11-04T23:19:45Z</time>
      </trkpt>
      <trkpt lat="47.30038" lon="-2.53461">
        <ele>3</ele>
        <time>2023-11-04T23:20:47Z</time>
      </trkpt>
      <trkpt lat="47.2996" lon="-2.53537">
        <ele>3</ele>
        <time>2023-11-04T23:22:52Z</time>
      </trkpt>
      <trkpt lat="47.29932" lon="-2.53581">
        <ele>3</ele>
        <time>2023-11-04T23:23:47Z</time>
      </trkpt>
      <trkpt lat="47.29918" lon="-2.53616">
        <ele>3</ele>
        <time>2023-11-04T23:24:23Z</time>
      </trkpt>
      <trkpt lat="47.2991" lon="-2.5366">
        <ele>2</ele>
        <time>2023-11-04T23:25:05Z</time>
      </trkpt>
      <trkpt lat="47.29911" lon="-2.53692">
        <ele>2</ele>
        <time>2023-11-04T23:25:33Z</time>
      </trkpt>
      <trkpt lat="47.29928" lon="-2.53811">
        <ele>3</ele>
        <time>2023-11-04T23:27:24Z</time>
      </trkpt>
      <trkpt lat="47.29947" lon="-2.53875">
        <ele>2</ele>
        <time>2023-11-04T23:28:27Z</time>
      </trkpt>
      <trkpt lat="47.29957" lon="-2.53967">
        <ele>2</ele>
        <time>2023-11-04T23:29:51Z</time>
      </trkpt>
      <trkpt lat="47.29949" lon="-2.53993">
        <ele>2</ele>
        <time>2023-11-04T23:30:17Z</time>
      </trkpt>
      <trkpt lat="47.29901" lon="-2.54086">
        <ele>2</ele>
        <time>2023-11-04T23:32:03Z</time>
      </trkpt>
      <trkpt lat="47.29879" lon="-2.54166">
        <ele>2</ele>
        <time>2023-11-04T23:33:21Z</time>
      </trkpt>
      <trkpt lat="47.29871" lon="-2.54312">
        <ele>3</ele>
        <time>2023-11-04T23:35:33Z</time>
      </trkpt>
      <trkpt lat="47.29857" lon="-2.5434">
        <ele>3</ele>
        <time>2023-11-04T23:36:05Z</time>
      </trkpt>
      <trkpt lat="47.29834" lon="-2.54364">
        <ele>4</ele>
        <time>2023-11-04T23:36:42Z</time>
      </trkpt>
      <trkpt lat="47.29812" lon="-2.54404">
        <ele>3</ele>
        <time>2023-11-04T23:37:29Z</time>
      </trkpt>
      <trkpt lat="47.29804" lon="-2.54433">
        <ele>3</ele>
        <time>2023-11-04T23:37:57Z</time>
      </trkpt>
      <trkpt lat="47.29796" lon="-2.54446">
        <ele>3</ele>
        <time>2023-11-04T23:38:13Z</time>
      </trkpt>
      <trkpt lat="47.29749" lon="-2.54497">
        <ele>4</ele>
        <time>2023-11-04T23:39:31Z</time>
      </trkpt>
      <trkpt lat="47.29735" lon="-2.54502">
        <ele>4</ele>
        <time>2023-11-04T23:39:50Z</time>
      </trkpt>
      <trkpt lat="47.29643" lon="-2.54587">
        <ele>2</ele>
        <time>2023-11-04T23:42:15Z</time>
      </trkpt>
      <trkpt lat="47.29526" lon="-2.54621">
        <ele>4</ele>
        <time>2023-11-04T23:44:54Z</time>
      </trkpt>
      <trkpt lat="47.29493" lon="-2.54647">
        <ele>3</ele>
        <time>2023-11-04T23:45:44Z</time>
      </trkpt>
      <trkpt lat="47.29479" lon="-2.54668">
        <ele>3</ele>
        <time>2023-11-04T23:46:11Z</time>
      </trkpt>
      <trkpt lat="47.29452" lon="-2.5468">
        <ele>4</ele>
        <time>2023-11-04T23:46:49Z</time>
      </trkpt>
      <trkpt lat="47.29337" lon="-2.54684">
        <ele>6</ele>
        <time>2023-11-04T23:49:22Z</time>
      </trkpt>
      <trkpt lat="47.29328" lon="-2.54687">
        <ele>5</ele>
        <time>2023-11-04T23:49:34Z</time>
      </trkpt>
      <trkpt lat="47.29328" lon="-2.54696">
        <ele>5</ele>
        <time>2023-11-04T23:49:43Z</time>
      </trkpt>
      <trkpt lat="47.29319" lon="-2.54691">
        <ele>5</ele>
        <time>2023-11-04T23:49:55Z</time>
      </trkpt>
      <trkpt lat="47.29295" lon="-2.54695">
        <ele>4</ele>
        <time>2023-11-04T23:50:28Z</time>
      </trkpt>
      <trkpt lat="47.29274" lon="-2.54713">
        <ele>3</ele>
        <time>2023-11-04T23:51:00Z</time>
      </trkpt>
      <trkpt lat="47.29246" lon="-2.54711">
        <ele>3</ele>
        <time>2023-11-04T23:51:37Z</time>
      </trkpt>
      <trkpt lat="47.2924" lon="-2.54692">
        <ele>3</ele>
        <time>2023-11-04T23:51:56Z</time>
      </trkpt>
      <trkpt lat="47.29208" lon="-2.5463">
        <ele>5</ele>
        <time>2023-11-04T23:53:07Z</time>
      </trkpt>
      <trkpt lat="47.29169" lon="-2.54585">
        <ele>5</ele>
        <time>2023-11-04T23:54:13Z</time>
      </trkpt>
      <trkpt lat="47.29143" lon="-2.54573">
        <ele>5</ele>
        <time>2023-11-04T23:54:49Z</time>
      </trkpt>
      <trkpt lat="47.29084" lon="-2.54526">
        <ele>4</ele>
        <time>2023-11-04T23:56:19Z</time>
      </trkpt>
      <trkpt lat="47.29043" lon="-2.54555">
        <ele>3</ele>
        <time>2023-11-04T23:57:20Z</time>
      </trkpt>
      <trkpt lat="47.29017" lon="-2.54497">
        <ele>3</ele>
        <time>2023-11-04T23:58:23Z</time>
      </trkpt>
      <trkpt lat="47.29031" lon="-2.54455">
        <ele>3</ele>
        <time>2023-11-04T23:59:05Z</time>
      </trkpt>
      <trkpt lat="47.29048" lon="-2.5444">
        <ele>3</ele>
        <time>2023-11-04T23:59:31Z</time>
      </trkpt>
      <trkpt lat="47.29053" lon="-2.54422">
        <ele>3</ele>
        <time>2023-11-04T23:59:49Z</time>
      </trkpt>
      <trkpt lat="47.29061" lon="-2.54418">
        <ele>3</ele>
        <time>2023-11-05T00:00:00Z</time>
      </trkpt>
      <trkpt lat="47.29066" lon="-2.54406">
        <ele>3</ele>
        <time>2023-11-05T00:00:13Z</time>
      </trkpt>
      <trkpt lat="47.29065" lon="-2.54358">
        <ele>3</ele>
        <time>2023-11-05T00:00:56Z</time>
      </trkpt>
      <trkpt lat="47.29056" lon="-2.54311">
        <ele>3</ele>
        <time>2023-11-05T00:01:41Z</time>
      </trkpt>
      <trkpt lat="47.28979" lon="-2.54076">
        <ele>5</ele>
        <time>2023-11-05T00:05:37Z</time>
      </trkpt>
      <trkpt lat="47.28942" lon="-2.53931">
        <ele>5</ele>
        <time>2023-11-05T00:07:57Z</time>
      </trkpt>
      <trkpt lat="47.28945" lon="-2.53909">
        <ele>6</ele>
        <time>2023-11-05T00:08:17Z</time>
      </trkpt>
      <trkpt lat="47.2894" lon="-2.53904">
        <ele>6</ele>
        <time>2023-11-05T00:08:25Z</time>
      </trkpt>
      <trkpt lat="47.28917" lon="-2.53736">
        <ele>8</ele>
        <time>2023-11-05T00:11:01Z</time>
      </trkpt>
      <trkpt lat="47.28894" lon="-2.53623">
        <ele>9</ele>
        <time>2023-11-05T00:12:47Z</time>
      </trkpt>
      <trkpt lat="47.28862" lon="-2.53508">
        <ele>9</ele>
        <time>2023-11-05T00:14:40Z</time>
      </trkpt>
      <trkpt lat="47.28859" lon="-2.53408">
        <ele>10</ele>
        <time>2023-11-05T00:16:10Z</time>
      </trkpt>
      <trkpt lat="47.28827" lon="-2.53229">
        <ele>12</ele>
        <time>2023-11-05T00:18:58Z</time>
      </trkpt>
      <trkpt lat="47.28806" lon="-2.53213">
        <ele>10</ele>
        <time>2023-11-05T00:19:30Z</time>
      </trkpt>
      <trkpt lat="47.28761" lon="-2.53158">
        <ele>8</ele>
        <time>2023-11-05T00:20:48Z</time>
      </trkpt>
      <trkpt lat="47.2875" lon="-2.53116">
        <ele>9</ele>
        <time>2023-11-05T00:21:28Z</time>
      </trkpt>
      <trkpt lat="47.28743" lon="-2.53028">
        <ele>11</ele>
        <time>2023-11-05T00:22:49Z</time>
      </trkpt>
      <trkpt lat="47.2875" lon="-2.52981">
        <ele>12</ele>
        <time>2023-11-05T00:23:32Z</time>
      </trkpt>
      <trkpt lat="47.28739" lon="-2.52944">
        <ele>9</ele>
        <time>2023-11-05T00:24:09Z</time>
      </trkpt>
      <trkpt lat="47.28735" lon="-2.52869">
        <ele>9</ele>
        <time>2023-11-05T00:25:17Z</time>
      </trkpt>
      <trkpt lat="47.28716" lon="-2.52741">
        <ele>8</ele>
        <time>2023-11-05T00:27:15Z</time>
      </trkpt>
      <trkpt lat="47.2872" lon="-2.52679">
        <ele>7</ele>
        <time>2023-11-05T00:28:12Z</time>
      </trkpt>
      <trkpt lat="47.28715" lon="-2.52644">
        <ele>7</ele>
        <time>2023-11-05T00:28:44Z</time>
      </trkpt>
      <trkpt lat="47.28698" lon="-2.52592">
        <ele>6</ele>
        <time>2023-11-05T00:29:36Z</time>
      </trkpt>
      <trkpt lat="47.28699" lon="-2.52566">
        <ele>6</ele>
        <time>2023-11-05T00:30:00Z</time>
      </trkpt>
      <trkpt lat="47.28714" lon="-2.52531">
        <ele>7</ele>
        <time>2023-11-05T00:30:37Z</time>
      </trkpt>
      <trkpt lat="47.28709" lon="-2.52511">
        <ele>6</ele>
        <time>2023-11-05T00:30:57Z</time>
      </trkpt>
      <trkpt lat="47.28716" lon="-2.52486">
        <ele>7</ele>
        <time>2023-11-05T00:31:21Z</time>
      </trkpt>
      <trkpt lat="47.28728" lon="-2.52468">
        <ele>8</ele>
        <time>2023-11-05T00:31:44Z</time>
      </trkpt>
      <trkpt lat="47.28734" lon="-2.52442">
        <ele>9</ele>
        <time>2023-11-05T00:32:09Z</time>
      </trkpt>
      <trkpt lat="47.28743" lon="-2.52424">
        <ele>10</ele>
        <time>2023-11-05T00:32:29Z</time>
      </trkpt>
      <trkpt lat="47.28736" lon="-2.52378">
        <ele>9</ele>
        <time>2023-11-05T00:33:12Z</time>
      </trkpt>
      <trkpt lat="47.28721" lon="-2.52351">
        <ele>8</ele>
        <time>2023-11-05T00:33:43Z</time>
      </trkpt>
      <trkpt lat="47.28724" lon="-2.52321">
        <ele>8</ele>
        <time>2023-11-05T00:34:11Z</time>
      </trkpt>
      <trkpt lat="47.28708" lon="-2.52266">
        <ele>7</ele>
        <time>2023-11-05T00:35:05Z</time>
      </trkpt>
      <trkpt lat="47.28708" lon="-2.52231">
        <ele>8</ele>
        <time>2023-11-05T00:35:37Z</time>
      </trkpt>
      <trkpt lat="47.28703" lon="-2.52215">
        <ele>8</ele>
        <time>2023-11-05T00:35:53Z</time>
      </trkpt>
      <trkpt lat="47.28679" lon="-2.52231">
        <ele>6</ele>
        <time>2023-11-05T00:36:28Z</time>
      </trkpt>
      <trkpt lat="47.28675" lon="-2.52229">
        <ele>6</ele>
        <time>2023-11-05T00:36:33Z</time>
      </trkpt>
      <trkpt lat="47.28653" lon="-2.52205">
        <ele>5</ele>
        <time>2023-11-05T00:37:10Z</time>
      </trkpt>
      <trkpt lat="47.28629" lon="-2.52184">
        <ele>4</ele>
        <time>2023-11-05T00:37:47Z</time>
      </trkpt>
      <trkpt lat="47.28635" lon="-2.52165">
        <ele>5</ele>
        <time>2023-11-05T00:38:06Z</time>
      </trkpt>
      <trkpt lat="47.28652" lon="-2.52148">
        <ele>7</ele>
        <time>2023-11-05T00:38:34Z</time>
      </trkpt>
      <trkpt lat="47.28644" lon="-2.52123">
        <ele>7</ele>
        <time>2023-11-05T00:38:59Z</time>
      </trkpt>
      <trkpt lat="47.28655" lon="-2.52091">
        <ele>9</ele>
        <time>2023-11-05T00:39:31Z</time>
      </trkpt>
      <trkpt lat="47.28653" lon="-2.52082">
        <ele>9</ele>
        <time>2023-11-05T00:39:40Z</time>
      </trkpt>
      <trkpt lat="47.28635" lon="-2.52066">
        <ele>7</ele>
        <time>2023-11-05T00:40:08Z</time>
      </trkpt>
      <trkpt lat="47.28637" lon="-2.52037">
        <ele>7</ele>
        <time>2023-11-05T00:40:34Z</time>
      </trkpt>
      <trkpt lat="47.28619" lon="-2.52001">
        <ele>6</ele>
        <time>2023-11-05T00:41:15Z</time>
      </trkpt>
      <trkpt lat="47.28611" lon="-2.51954">
        <ele>5</ele>
        <time>2023-11-05T00:41:58Z</time>
      </trkpt>
      <trkpt lat="47.28623" lon="-2.51916">
        <ele>6</ele>
        <time>2023-11-05T00:42:36Z</time>
      </trkpt>
      <trkpt lat="47.28618" lon="-2.51877">
        <ele>8</ele>
        <time>2023-11-05T00:43:12Z</time>
      </trkpt>
      <trkpt lat="47.28591" lon="-2.51822">
        <ele>7</ele>
        <time>2023-11-05T00:44:14Z</time>
      </trkpt>
      <trkpt lat="47.28561" lon="-2.51787">
        <ele>6</ele>
        <time>2023-11-05T00:45:05Z</time>
      </trkpt>
      <trkpt lat="47.28549" lon="-2.5175">
        <ele>7</ele>
        <time>2023-11-05T00:45:42Z</time>
      </trkpt>
      <trkpt lat="47.28534" lon="-2.51677">
        <ele>6</ele>
        <time>2023-11-05T00:46:51Z</time>
      </trkpt>
      <trkpt lat="47.28532" lon="-2.51618">
        <ele>5</ele>
        <time>2023-11-05T00:47:44Z</time>
      </trkpt>
      <trkpt lat="47.28522" lon="-2.5153">
        <ele>6</ele>
        <time>2023-11-05T00:49:05Z</time>
      </trkpt>
      <trkpt lat="47.28507" lon="-2.51496">
        <ele>6</ele>
        <time>2023-11-05T00:49:42Z</time>
      </trkpt>
      <trkpt lat="47.28474" lon="-2.51458">
        <ele>6</ele>
        <time>2023-11-05T00:50:38Z</time>
      </trkpt>
      <trkpt lat="47.28445" lon="-2.51402">
        <ele>7</ele>
        <time>2023-11-05T00:51:42Z</time>
      </trkpt>
      <trkpt lat="47.28438" lon="-2.51337">
        <ele>7</ele>
        <time>2023-11-05T00:52:41Z</time>
      </trkpt>
      <trkpt lat="47.28419" lon="-2.51295">
        <ele>6</ele>
        <time>2023-11-05T00:53:27Z</time>
      </trkpt>
      <trkpt lat="47.28401" lon="-2.51266">
        <ele>6</ele>
        <time>2023-11-05T00:54:03Z</time>
      </trkpt>
      <trkpt lat="47.28351" lon="-2.51229">
        <ele>4</ele>
        <time>2023-11-05T00:55:17Z</time>
      </trkpt>
      <trkpt lat="47.28331" lon="-2.5122">
        <ele>3</ele>
        <time>2023-11-05T00:55:45Z</time>
      </trkpt>
      <trkpt lat="47.28304" lon="-2.51195">
        <ele>3</ele>
        <time>2023-11-05T00:56:28Z</time>
      </trkpt>
      <trkpt lat="47.28283" lon="-2.51153">
        <ele>4</ele>
        <time>2023-11-05T00:57:15Z</time>
      </trkpt>
      <trkpt lat="47.28265" lon="-2.51088">
        <ele>5</ele>
        <time>2023-11-05T00:58:18Z</time>
      </trkpt>
      <trkpt lat="47.28254" lon="-2.51069">
        <ele>5</ele>
        <time>2023-11-05T00:58:41Z</time>
      </trkpt>
      <trkpt lat="47.28236" lon="-2.51051">
        <ele>4</ele>
        <time>2023-11-05T00:59:10Z</time>
      </trkpt>
      <trkpt lat="47.28231" lon="-2.51026">
        <ele>4</ele>
        <time>2023-11-05T00:59:34Z</time>
      </trkpt>
      <trkpt lat="47.28238" lon="-2.50985">
        <ele>4</ele>
        <time>2023-11-05T01:00:12Z</time>
      </trkpt>
      <trkpt lat="47.28229" lon="-2.50913">
        <ele>4</ele>
        <time>2023-11-05T01:01:18Z</time>
      </trkpt>
      <trkpt lat="47.28224" lon="-2.50883">
        <ele>4</ele>
        <time>2023-11-05T01:01:46Z</time>
      </trkpt>
      <trkpt lat="47.28203" lon="-2.50809">
        <ele>3</ele>
        <time>2023-11-05T01:02:59Z</time>
      </trkpt>
      <trkpt lat="47.28203" lon="-2.50776">
        <ele>4</ele>
        <time>2023-11-05T01:03:29Z</time>
      </trkpt>
      <trkpt lat="47.28184" lon="-2.50711">
        <ele>4</ele>
        <time>2023-11-05T01:04:33Z</time>
      </trkpt>
      <trkpt lat="47.28166" lon="-2.50627">
        <ele>5</ele>
        <time>2023-11-05T01:05:52Z</time>
      </trkpt>
      <trkpt lat="47.28125" lon="-2.50574">
        <ele>5</ele>
        <time>2023-11-05T01:07:05Z</time>
      </trkpt>
      <trkpt lat="47.28084" lon="-2.50574">
        <ele>3</ele>
        <time>2023-11-05T01:08:00Z</time>
      </trkpt>
      <trkpt lat="47.2806" lon="-2.50566">
        <ele>3</ele>
        <time>2023-11-05T01:08:33Z</time>
      </trkpt>
      <trkpt lat="47.28031" lon="-2.50512">
        <ele>3</ele>
        <time>2023-11-05T01:09:35Z</time>
      </trkpt>
      <trkpt lat="47.28042" lon="-2.50457">
        <ele>3</ele>
        <time>2023-11-05T01:10:27Z</time>
      </trkpt>
      <trkpt lat="47.2804" lon="-2.50407">
        <ele>3</ele>
        <time>2023-11-05T01:11:12Z</time>
      </trkpt>
      <trkpt lat="47.28066" lon="-2.50403">
        <ele>4</ele>
        <time>2023-11-05T01:11:47Z</time>
      </trkpt>
      <trkpt lat="47.28076" lon="-2.50392">
        <ele>4</ele>
        <time>2023-11-05T01:12:04Z</time>
      </trkpt>
      <trkpt lat="47.28088" lon="-2.50375">
        <ele>4</ele>
        <time>2023-11-05T01:12:26Z</time>
      </trkpt>
      <trkpt lat="47.28109" lon="-2.50316">
        <ele>4</ele>
        <time>2023-11-05T01:13:26Z</time>
      </trkpt>
      <trkpt lat="47.28113" lon="-2.50268">
        <ele>5</ele>
        <time>2023-11-05T01:14:10Z</time>
      </trkpt>
      <trkpt lat="47.28108" lon="-2.50182">
        <ele>5</ele>
        <time>2023-11-05T01:15:28Z</time>
      </trkpt>
      <trkpt lat="47.28115" lon="-2.50175">
        <ele>6</ele>
        <time>2023-11-05T01:15:40Z</time>
      </trkpt>
      <trkpt lat="47.28096" lon="-2.50177">
        <ele>5</ele>
        <time>2023-11-05T01:16:05Z</time>
      </trkpt>
      <trkpt lat="47.28086" lon="-2.50132">
        <ele>4</ele>
        <time>2023-11-05T01:16:48Z</time>
      </trkpt>
      <trkpt lat="47.28076" lon="-2.50025">
        <ele>4</ele>
        <time>2023-11-05T01:18:26Z</time>
      </trkpt>
      <trkpt lat="47.28055" lon="-2.49924">
        <ele>5</ele>
        <time>2023-11-05T01:20:01Z</time>
      </trkpt>
      <trkpt lat="47.28037" lon="-2.49854">
        <ele>4</ele>
        <time>2023-11-05T01:21:09Z</time>
      </trkpt>
      <trkpt lat="47.28002" lon="-2.49751">
        <ele>5</ele>
        <time>2023-11-05T01:22:53Z</time>
      </trkpt>
      <trkpt lat="47.27995" lon="-2.49695">
        <ele>7</ele>
        <time>2023-11-05T01:23:45Z</time>
      </trkpt>
      <trkpt lat="47.27982" lon="-2.49656">
        <ele>7</ele>
        <time>2023-11-05T01:24:24Z</time>
      </trkpt>
      <trkpt lat="47.27949" lon="-2.49598">
        <ele>6</ele>
        <time>2023-11-05T01:25:33Z</time>
      </trkpt>
      <trkpt lat="47.2789" lon="-2.49511">
        <ele>7</ele>
        <time>2023-11-05T01:27:24Z</time>
      </trkpt>
      <trkpt lat="47.27818" lon="-2.49447">
        <ele>6</ele>
        <time>2023-11-05T01:29:16Z</time>
      </trkpt>
      <trkpt lat="47.2781" lon="-2.49437">
        <ele>7</ele>
        <time>2023-11-05T01:29:30Z</time>
      </trkpt>
      <trkpt lat="47.27814" lon="-2.4942">
        <ele>7</ele>
        <time>2023-11-05T01:29:47Z</time>
      </trkpt>
      <trkpt lat="47.2781" lon="-2.49415">
        <ele>7</ele>
        <time>2023-11-05T01:29:54Z</time>
      </trkpt>
      <trkpt lat="47.27804" lon="-2.49427">
        <ele>7</ele>
        <time>2023-11-05T01:30:07Z</time>
      </trkpt>
      <trkpt lat="47.27786" lon="-2.49425">
        <ele>6</ele>
        <time>2023-11-05T01:30:31Z</time>
      </trkpt>
      <trkpt lat="47.27769" lon="-2.49415">
        <ele>7</ele>
        <time>2023-11-05T01:30:56Z</time>
      </trkpt>
      <trkpt lat="47.27756" lon="-2.4942">
        <ele>6</ele>
        <time>2023-11-05T01:31:14Z</time>
      </trkpt>
      <trkpt lat="47.27729" lon="-2.4942">
        <ele>5</ele>
        <time>2023-11-05T01:31:50Z</time>
      </trkpt>
      <trkpt lat="47.27707" lon="-2.49411">
        <ele>5</ele>
        <time>2023-11-05T01:32:20Z</time>
      </trkpt>
      <trkpt lat="47.27642" lon="-2.49396">
        <ele>4</ele>
        <time>2023-11-05T01:33:48Z</time>
      </trkpt>
      <trkpt lat="47.27601" lon="-2.49397">
        <ele>2</ele>
        <time>2023-11-05T01:34:43Z</time>
      </trkpt>
      <trkpt lat="47.27577" lon="-2.49402">
        <ele>2</ele>
        <time>2023-11-05T01:35:15Z</time>
      </trkpt>
      <trkpt lat="47.2756" lon="-2.49411">
        <ele>1</ele>
        <time>2023-11-05T01:35:39Z</time>
      </trkpt>
      <trkpt lat="47.27527" lon="-2.49416">
        <ele>3</ele>
        <time>2023-11-05T01:36:23Z</time>
      </trkpt>
      <trkpt lat="47.27522" lon="-2.49386">
        <ele>1</ele>
        <time>2023-11-05T01:36:51Z</time>
      </trkpt>
      <trkpt lat="47.27526" lon="-2.49354">
        <ele>2</ele>
        <time>2023-11-05T01:37:21Z</time>
      </trkpt>
      <trkpt lat="47.27556" lon="-2.49244">
        <ele>4</ele>
        <time>2023-11-05T01:39:08Z</time>
      </trkpt>
      <trkpt lat="47.27555" lon="-2.49217">
        <ele>5</ele>
        <time>2023-11-05T01:39:33Z</time>
      </trkpt>
      <trkpt lat="47.27548" lon="-2.4919">
        <ele>5</ele>
        <time>2023-11-05T01:39:59Z</time>
      </trkpt>
      <trkpt lat="47.27553" lon="-2.49129">
        <ele>6</ele>
        <time>2023-11-05T01:40:54Z</time>
      </trkpt>
      <trkpt lat="47.27532" lon="-2.49008">
        <ele>5</ele>
        <time>2023-11-05T01:42:48Z</time>
      </trkpt>
      <trkpt lat="47.27528" lon="-2.48935">
        <ele>5</ele>
        <time>2023-11-05T01:43:54Z</time>
      </trkpt>
      <trkpt lat="47.2752" lon="-2.48914">
        <ele>4</ele>
        <time>2023-11-05T01:44:16Z</time>
      </trkpt>
      <trkpt lat="47.27518" lon="-2.48896">
        <ele>5</ele>
        <time>2023-11-05T01:44:32Z</time>
      </trkpt>
      <trkpt lat="47.27545" lon="-2.48775">
        <ele>7</ele>
        <time>2023-11-05T01:46:27Z</time>
      </trkpt>
      <trkpt lat="47.27538" lon="-2.48734">
        <ele>6</ele>
        <time>2023-11-05T01:47:06Z</time>
      </trkpt>
      <trkpt lat="47.27527" lon="-2.48705">
        <ele>6</ele>
        <time>2023-11-05T01:47:36Z</time>
      </trkpt>
      <trkpt lat="47.27481" lon="-2.48682">
        <ele>4</ele>
        <time>2023-11-05T01:48:41Z</time>
      </trkpt>
      <trkpt lat="47.27459" lon="-2.48598">
        <ele>5</ele>
        <time>2023-11-05T01:50:02Z</time>
      </trkpt>
      <trkpt lat="47.27456" lon="-2.48565">
        <ele>5</ele>
        <time>2023-11-05T01:50:32Z</time>
      </trkpt>
      <trkpt lat="47.27469" lon="-2.48525">
        <ele>6</ele>
        <time>2023-11-05T01:51:12Z</time>
      </trkpt>
      <trkpt lat="47.27465" lon="-2.48469">
        <ele>6</ele>
        <time>2023-11-05T01:52:03Z</time>
      </trkpt>
      <trkpt lat="47.27455" lon="-2.48416">
        <ele>6</ele>
        <time>2023-11-05T01:52:53Z</time>
      </trkpt>
      <trkpt lat="47.27435" lon="-2.48351">
        <ele>5</ele>
        <time>2023-11-05T01:53:58Z</time>
      </trkpt>
      <trkpt lat="47.27422" lon="-2.48278">
        <ele>6</ele>
        <time>2023-11-05T01:55:06Z</time>
      </trkpt>
      <trkpt lat="47.27404" lon="-2.4814">
        <ele>9</ele>
        <time>2023-11-05T01:57:13Z</time>
      </trkpt>
      <trkpt lat="47.27382" lon="-2.48112">
        <ele>9</ele>
        <time>2023-11-05T01:57:52Z</time>
      </trkpt>
      <trkpt lat="47.27362" lon="-2.48099">
        <ele>8</ele>
        <time>2023-11-05T01:58:21Z</time>
      </trkpt>
      <trkpt lat="47.27316" lon="-2.48092">
        <ele>6</ele>
        <time>2023-11-05T01:59:23Z</time>
      </trkpt>
      <trkpt lat="47.27276" lon="-2.48083">
        <ele>6</ele>
        <time>2023-11-05T02:00:17Z</time>
      </trkpt>
      <trkpt lat="47.27265" lon="-2.48017">
        <ele>5</ele>
        <time>2023-11-05T02:01:19Z</time>
      </trkpt>
      <trkpt lat="47.27266" lon="-2.47984">
        <ele>4</ele>
        <time>2023-11-05T02:01:49Z</time>
      </trkpt>
      <trkpt lat="47.27281" lon="-2.47929">
        <ele>5</ele>
        <time>2023-11-05T02:02:42Z</time>
      </trkpt>
      <trkpt lat="47.27278" lon="-2.47863">
        <ele>5</ele>
        <time>2023-11-05T02:03:42Z</time>
      </trkpt>
      <trkpt lat="47.27281" lon="-2.47848">
        <ele>6</ele>
        <time>2023-11-05T02:03:56Z</time>
      </trkpt>
      <trkpt lat="47.27247" lon="-2.47802">
        <ele>6</ele>
        <time>2023-11-05T02:04:58Z</time>
      </trkpt>
      <trkpt lat="47.27227" lon="-2.47808">
        <ele>5</ele>
        <time>2023-11-05T02:05:25Z</time>
      </trkpt>
      <trkpt lat="47.27213" lon="-2.47802">
        <ele>5</ele>
        <time>2023-11-05T02:05:45Z</time>
      </trkpt>
      <trkpt lat="47.27206" lon="-2.47786">
        <ele>5</ele>
        <time>2023-11-05T02:06:02Z</time>
      </trkpt>
      <trkpt lat="47.27199" lon="-2.47782">
        <ele>5</ele>
        <time>2023-11-05T02:06:12Z</time>
      </trkpt>
      <trkpt lat="47.27182" lon="-2.47685">
        <ele>6</ele>
        <time>2023-11-05T02:07:43Z</time>
      </trkpt>
      <trkpt lat="47.2716" lon="-2.47628">
        <ele>6</ele>
        <time>2023-11-05T02:08:42Z</time>
      </trkpt>
      <trkpt lat="47.27177" lon="-2.47589">
        <ele>8</ele>
        <time>2023-11-05T02:09:24Z</time>
      </trkpt>
      <trkpt lat="47.27175" lon="-2.47581">
        <ele>9</ele>
        <time>2023-11-05T02:09:32Z</time>
      </trkpt>
      <trkpt lat="47.27134" lon="-2.47558">
        <ele>6</ele>
        <time>2023-11-05T02:10:30Z</time>
      </trkpt>
      <trkpt lat="47.27113" lon="-2.47521">
        <ele>6</ele>
        <time>2023-11-05T02:11:14Z</time>
      </trkpt>
      <trkpt lat="47.27085" lon="-2.47399">
        <ele>8</ele>
        <time>2023-11-05T02:13:10Z</time>
      </trkpt>
      <trkpt lat="47.27065" lon="-2.47346">
        <ele>9</ele>
        <time>2023-11-05T02:14:05Z</time>
      </trkpt>
      <trkpt lat="47.27057" lon="-2.47303">
        <ele>9</ele>
        <time>2023-11-05T02:14:46Z</time>
      </trkpt>
      <trkpt lat="47.27042" lon="-2.47275">
        <ele>7</ele>
        <time>2023-11-05T02:15:18Z</time>
      </trkpt>
      <trkpt lat="47.27045" lon="-2.47163">
        <ele>10</ele>
        <time>2023-11-05T02:17:00Z</time>
      </trkpt>
      <trkpt lat="47.27041" lon="-2.47141">
        <ele>10</ele>
        <time>2023-11-05T02:17:20Z</time>
      </trkpt>
      <trkpt lat="47.27026" lon="-2.47149">
        <ele>9</ele>
        <time>2023-11-05T02:17:41Z</time>
      </trkpt>
      <trkpt lat="47.27014" lon="-2.47162">
        <ele>7</ele>
        <time>2023-11-05T02:18:01Z</time>
      </trkpt>
      <trkpt lat="47.27007" lon="-2.47164">
        <ele>7</ele>
        <time>2023-11-05T02:18:11Z</time>
      </trkpt>
      <trkpt lat="47.27" lon="-2.47161">
        <ele>6</ele>
        <time>2023-11-05T02:18:21Z</time>
      </trkpt>
      <trkpt lat="47.26984" lon="-2.4713">
        <ele>6</ele>
        <time>2023-11-05T02:18:56Z</time>
      </trkpt>
      <trkpt lat="47.26996" lon="-2.47099">
        <ele>7</ele>
        <time>2023-11-05T02:19:28Z</time>
      </trkpt>
      <trkpt lat="47.26995" lon="-2.47059">
        <ele>8</ele>
        <time>2023-11-05T02:20:04Z</time>
      </trkpt>
      <trkpt lat="47.27009" lon="-2.47036">
        <ele>9</ele>
        <time>2023-11-05T02:20:32Z</time>
      </trkpt>
      <trkpt lat="47.27007" lon="-2.47022">
        <ele>9</ele>
        <time>2023-11-05T02:20:45Z</time>
      </trkpt>
      <trkpt lat="47.27011" lon="-2.46992">
        <ele>9</ele>
        <time>2023-11-05T02:21:13Z</time>
      </trkpt>
      <trkpt lat="47.26994" lon="-2.46936">
        <ele>8</ele>
        <time>2023-11-05T02:22:09Z</time>
      </trkpt>
      <trkpt lat="47.26994" lon="-2.46903">
        <ele>8</ele>
        <time>2023-11-05T02:22:38Z</time>
      </trkpt>
      <trkpt lat="47.26975" lon="-2.4687">
        <ele>6</ele>
        <time>2023-11-05T02:23:18Z</time>
      </trkpt>
      <trkpt lat="47.26967" lon="-2.46833">
        <ele>5</ele>
        <time>2023-11-05T02:23:53Z</time>
      </trkpt>
      <trkpt lat="47.26964" lon="-2.46809">
        <ele>5</ele>
        <time>2023-11-05T02:24:15Z</time>
      </trkpt>
      <trkpt lat="47.26974" lon="-2.4679">
        <ele>5</ele>
        <time>2023-11-05T02:24:37Z</time>
      </trkpt>
      <trkpt lat="47.2697" lon="-2.46754">
        <ele>5</ele>
        <time>2023-11-05T02:25:10Z</time>
      </trkpt>
      <trkpt lat="47.27" lon="-2.467">
        <ele>5</ele>
        <time>2023-11-05T02:26:13Z</time>
      </trkpt>
      <trkpt lat="47.27017" lon="-2.46689">
        <ele>6</ele>
        <time>2023-11-05T02:26:38Z</time>
      </trkpt>
      <trkpt lat="47.2704" lon="-2.46654">
        <ele>6</ele>
        <time>2023-11-05T02:27:22Z</time>
      </trkpt>
      <trkpt lat="47.27056" lon="-2.46646">
        <ele>6</ele>
        <time>2023-11-05T02:27:44Z</time>
      </trkpt>
      <trkpt lat="47.27068" lon="-2.46596">
        <ele>5</ele>
        <time>2023-11-05T02:28:32Z</time>
      </trkpt>
      <trkpt lat="47.27103" lon="-2.46581">
        <ele>6</ele>
        <time>2023-11-05T02:29:21Z</time>
      </trkpt>
      <trkpt lat="47.27107" lon="-2.46565">
        <ele>6</ele>
        <time>2023-11-05T02:29:36Z</time>
      </trkpt>
      <trkpt lat="47.27095" lon="-2.46522">
        <ele>6</ele>
        <time>2023-11-05T02:30:19Z</time>
      </trkpt>
      <trkpt lat="47.27088" lon="-2.46512">
        <ele>5</ele>
        <time>2023-11-05T02:30:32Z</time>
      </trkpt>
      <trkpt lat="47.27063" lon="-2.46521">
        <ele>4</ele>
        <time>2023-11-05T02:31:06Z</time>
      </trkpt>
      <trkpt lat="47.27038" lon="-2.46492">
        <ele>3</ele>
        <time>2023-11-05T02:31:48Z</time>
      </trkpt>
      <trkpt lat="47.27025" lon="-2.46496">
        <ele>3</ele>
        <time>2023-11-05T02:32:06Z</time>
      </trkpt>
      <trkpt lat="47.27008" lon="-2.46483">
        <ele>3</ele>
        <time>2023-11-05T02:32:32Z</time>
      </trkpt>
      <trkpt lat="47.26997" lon="-2.46462">
        <ele>3</ele>
        <time>2023-11-05T02:32:56Z</time>
      </trkpt>
      <trkpt lat="47.26983" lon="-2.46396">
        <ele>4</ele>
        <time>2023-11-05T02:33:58Z</time>
      </trkpt>
      <trkpt lat="47.26972" lon="-2.46371">
        <ele>3</ele>
        <time>2023-11-05T02:34:25Z</time>
      </trkpt>
      <trkpt lat="47.26959" lon="-2.46298">
        <ele>3</ele>
        <time>2023-11-05T02:35:34Z</time>
      </trkpt>
      <trkpt lat="47.26976" lon="-2.4626">
        <ele>3</ele>
        <time>2023-11-05T02:36:15Z</time>
      </trkpt>
      <trkpt lat="47.26985" lon="-2.46205">
        <ele>3</ele>
        <time>2023-11-05T02:37:06Z</time>
      </trkpt>
      <trkpt lat="47.27011" lon="-2.46194">
        <ele>5</ele>
        <time>2023-11-05T02:37:42Z</time>
      </trkpt>
      <trkpt lat="47.27021" lon="-2.46137">
        <ele>5</ele>
        <time>2023-11-05T02:38:35Z</time>
      </trkpt>
      <trkpt lat="47.26988" lon="-2.45991">
        <ele>6</ele>
        <time>2023-11-05T02:40:55Z</time>
      </trkpt>
      <trkpt lat="47.26971" lon="-2.45958">
        <ele>6</ele>
        <time>2023-11-05T02:41:32Z</time>
      </trkpt>
      <trkpt lat="47.26933" lon="-2.45919">
        <ele>4</ele>
        <time>2023-11-05T02:42:34Z</time>
      </trkpt>
      <trkpt lat="47.26909" lon="-2.45901">
        <ele>4</ele>
        <time>2023-11-05T02:43:10Z</time>
      </trkpt>
      <trkpt lat="47.26893" lon="-2.45874">
        <ele>4</ele>
        <time>2023-11-05T02:43:43Z</time>
      </trkpt>
      <trkpt lat="47.26874" lon="-2.45805">
        <ele>5</ele>
        <time>2023-11-05T02:44:50Z</time>
      </trkpt>
      <trkpt lat="47.26859" lon="-2.45782">
        <ele>4</ele>
        <time>2023-11-05T02:45:19Z</time>
      </trkpt>
      <trkpt lat="47.26843" lon="-2.45732">
        <ele>3</ele>
        <time>2023-11-05T02:46:09Z</time>
      </trkpt>
      <trkpt lat="47.26847" lon="-2.45702">
        <ele>4</ele>
        <time>2023-11-05T02:46:37Z</time>
      </trkpt>
      <trkpt lat="47.26814" lon="-2.45703">
        <ele>3</ele>
        <time>2023-11-05T02:47:21Z</time>
      </trkpt>
      <trkpt lat="47.26774" lon="-2.45659">
        <ele>2</ele>
        <time>2023-11-05T02:48:27Z</time>
      </trkpt>
      <trkpt lat="47.26748" lon="-2.4564">
        <ele>2</ele>
        <time>2023-11-05T02:49:06Z</time>
      </trkpt>
      <trkpt lat="47.26741" lon="-2.45628">
        <ele>3</ele>
        <time>2023-11-05T02:49:20Z</time>
      </trkpt>
      <trkpt lat="47.26739" lon="-2.45572">
        <ele>5</ele>
        <time>2023-11-05T02:50:11Z</time>
      </trkpt>
      <trkpt lat="47.26743" lon="-2.45537">
        <ele>6</ele>
        <time>2023-11-05T02:50:43Z</time>
      </trkpt>
      <trkpt lat="47.26707" lon="-2.45478">
        <ele>5</ele>
        <time>2023-11-05T02:51:55Z</time>
      </trkpt>
      <trkpt lat="47.26725" lon="-2.45446">
        <ele>6</ele>
        <time>2023-11-05T02:52:33Z</time>
      </trkpt>
    </trkseg>
  </trk>
</gpx>